<?xml version='1.0' encoding='UTF-8'?>
<gpx version="1.1" creator="https://www.komoot.de" xmlns="http://www.topografix.com/GPX/1/1" xmlns:xsi="http://www.w3.org/2001/XMLSchema-instance" xsi:schemaLocation="http://www.topografix.com/GPX/1/1 http://www.topografix.com/GPX/1/1/gpx.xsd">
  <metadata>
    <name>38_650WisiSissHemmAerf</name>
    <author>
      <link href="https://www.komoot.de">
        <text>komoot</text>
        <type>text/html</type>
      </link>
    </author>
  </metadata>
  <trk>
    <name>38_650WisiSissHemmAerf</name>
    <trkseg>
      <trkpt lat="47.547573" lon="7.863132">
        <ele>333.399262</ele>
        <time>2021-11-07T10:50:20.636Z</time>
      </trkpt>
      <trkpt lat="47.547930" lon="7.861711">
        <ele>333.276336</ele>
        <time>2021-11-07T10:50:38.570Z</time>
      </trkpt>
      <trkpt lat="47.548049" lon="7.860929">
        <ele>332.740396</ele>
        <time>2021-11-07T10:50:47.796Z</time>
      </trkpt>
      <trkpt lat="47.548334" lon="7.859801">
        <ele>331.935153</ele>
        <time>2021-11-07T10:51:01.642Z</time>
      </trkpt>
      <trkpt lat="47.548611" lon="7.858381">
        <ele>331.394276</ele>
        <time>2021-11-07T10:51:19.627Z</time>
      </trkpt>
      <trkpt lat="47.548686" lon="7.857973">
        <ele>331.300110</ele>
        <time>2021-11-07T10:51:25.015Z</time>
      </trkpt>
      <trkpt lat="47.548701" lon="7.857893">
        <ele>331.281621</ele>
        <time>2021-11-07T10:51:26.136Z</time>
      </trkpt>
      <trkpt lat="47.548743" lon="7.857692">
        <ele>331.234765</ele>
        <time>2021-11-07T10:51:28.910Z</time>
      </trkpt>
      <trkpt lat="47.548887" lon="7.857308">
        <ele>331.136942</ele>
        <time>2021-11-07T10:51:34.944Z</time>
      </trkpt>
      <trkpt lat="47.549362" lon="7.855774">
        <ele>331.364667</ele>
        <time>2021-11-07T10:51:58.989Z</time>
      </trkpt>
      <trkpt lat="47.549566" lon="7.855225">
        <ele>331.545176</ele>
        <time>2021-11-07T10:52:08.281Z</time>
      </trkpt>
      <trkpt lat="47.549883" lon="7.854434">
        <ele>331.811635</ele>
        <time>2021-11-07T10:52:22.622Z</time>
      </trkpt>
      <trkpt lat="47.550221" lon="7.853833">
        <ele>332.055336</ele>
        <time>2021-11-07T10:52:32.066Z</time>
      </trkpt>
      <trkpt lat="47.549708" lon="7.853279">
        <ele>332.348333</ele>
        <time>2021-11-07T10:52:45.956Z</time>
      </trkpt>
      <trkpt lat="47.549285" lon="7.852784">
        <ele>332.597122</ele>
        <time>2021-11-07T10:52:57.416Z</time>
      </trkpt>
      <trkpt lat="47.549356" lon="7.852626">
        <ele>332.593619</ele>
        <time>2021-11-07T10:53:00.051Z</time>
      </trkpt>
      <trkpt lat="47.549535" lon="7.852225">
        <ele>332.469567</ele>
        <time>2021-11-07T10:53:07.091Z</time>
      </trkpt>
      <trkpt lat="47.549652" lon="7.851969">
        <ele>332.389793</ele>
        <time>2021-11-07T10:53:11.509Z</time>
      </trkpt>
      <trkpt lat="47.550009" lon="7.851173">
        <ele>332.143193</ele>
        <time>2021-11-07T10:53:23.790Z</time>
      </trkpt>
      <trkpt lat="47.550333" lon="7.850434">
        <ele>331.867611</ele>
        <time>2021-11-07T10:53:34.043Z</time>
      </trkpt>
      <trkpt lat="47.550488" lon="7.850081">
        <ele>331.476942</ele>
        <time>2021-11-07T10:53:38.760Z</time>
      </trkpt>
      <trkpt lat="47.550810" lon="7.849346">
        <ele>330.664060</ele>
        <time>2021-11-07T10:53:48.505Z</time>
      </trkpt>
      <trkpt lat="47.550975" lon="7.849066">
        <ele>330.319241</ele>
        <time>2021-11-07T10:53:52.733Z</time>
      </trkpt>
      <trkpt lat="47.551242" lon="7.848702">
        <ele>329.820547</ele>
        <time>2021-11-07T10:53:56.977Z</time>
      </trkpt>
      <trkpt lat="47.551669" lon="7.848083">
        <ele>328.937562</ele>
        <time>2021-11-07T10:54:03.818Z</time>
      </trkpt>
      <trkpt lat="47.551196" lon="7.847517">
        <ele>327.990107</ele>
        <time>2021-11-07T10:54:10.709Z</time>
      </trkpt>
      <trkpt lat="47.551184" lon="7.847206">
        <ele>327.662476</ele>
        <time>2021-11-07T10:54:13.079Z</time>
      </trkpt>
      <trkpt lat="47.551205" lon="7.846694">
        <ele>327.122982</ele>
        <time>2021-11-07T10:54:17.007Z</time>
      </trkpt>
      <trkpt lat="47.551344" lon="7.844621">
        <ele>325.398138</ele>
        <time>2021-11-07T10:54:33.621Z</time>
      </trkpt>
      <trkpt lat="47.551454" lon="7.842815">
        <ele>324.194292</ele>
        <time>2021-11-07T10:54:48.808Z</time>
      </trkpt>
      <trkpt lat="47.551668" lon="7.842770">
        <ele>324.024763</ele>
        <time>2021-11-07T10:54:52.884Z</time>
      </trkpt>
      <trkpt lat="47.551922" lon="7.842704">
        <ele>323.822501</ele>
        <time>2021-11-07T10:54:57.527Z</time>
      </trkpt>
      <trkpt lat="47.552380" lon="7.842592">
        <ele>323.458416</ele>
        <time>2021-11-07T10:55:05.961Z</time>
      </trkpt>
      <trkpt lat="47.552833" lon="7.842495">
        <ele>323.014484</ele>
        <time>2021-11-07T10:55:13.938Z</time>
      </trkpt>
      <trkpt lat="47.553133" lon="7.842431">
        <ele>322.580270</ele>
        <time>2021-11-07T10:55:19.188Z</time>
      </trkpt>
      <trkpt lat="47.553123" lon="7.842222">
        <ele>322.377685</ele>
        <time>2021-11-07T10:55:20.769Z</time>
      </trkpt>
      <trkpt lat="47.553216" lon="7.841849">
        <ele>321.993217</ele>
        <time>2021-11-07T10:55:23.980Z</time>
      </trkpt>
      <trkpt lat="47.553231" lon="7.841529">
        <ele>321.683072</ele>
        <time>2021-11-07T10:55:26.475Z</time>
      </trkpt>
      <trkpt lat="47.552939" lon="7.839526">
        <ele>319.623072</ele>
        <time>2021-11-07T10:55:42.010Z</time>
      </trkpt>
      <trkpt lat="47.552836" lon="7.839136">
        <ele>319.183653</ele>
        <time>2021-11-07T10:55:45.271Z</time>
      </trkpt>
      <trkpt lat="47.552802" lon="7.839009">
        <ele>319.040299</ele>
        <time>2021-11-07T10:55:46.330Z</time>
      </trkpt>
      <trkpt lat="47.552736" lon="7.838578">
        <ele>318.576581</ele>
        <time>2021-11-07T10:55:49.780Z</time>
      </trkpt>
      <trkpt lat="47.552697" lon="7.838068">
        <ele>318.038042</ele>
        <time>2021-11-07T10:55:53.797Z</time>
      </trkpt>
      <trkpt lat="47.552719" lon="7.836790">
        <ele>316.652352</ele>
        <time>2021-11-07T10:56:03.768Z</time>
      </trkpt>
      <trkpt lat="47.552714" lon="7.835010">
        <ele>314.571653</ele>
        <time>2021-11-07T10:56:17.528Z</time>
      </trkpt>
      <trkpt lat="47.552710" lon="7.834705">
        <ele>314.019423</ele>
        <time>2021-11-07T10:56:19.650Z</time>
      </trkpt>
      <trkpt lat="47.552700" lon="7.833938">
        <ele>312.630703</ele>
        <time>2021-11-07T10:56:25.097Z</time>
      </trkpt>
      <trkpt lat="47.552696" lon="7.833789">
        <ele>312.360762</ele>
        <time>2021-11-07T10:56:26.089Z</time>
      </trkpt>
      <trkpt lat="47.552452" lon="7.833284">
        <ele>311.236469</ele>
        <time>2021-11-07T10:56:30.411Z</time>
      </trkpt>
      <trkpt lat="47.552467" lon="7.833198">
        <ele>311.075672</ele>
        <time>2021-11-07T10:56:31.022Z</time>
      </trkpt>
      <trkpt lat="47.552511" lon="7.833072">
        <ele>310.818856</ele>
        <time>2021-11-07T10:56:32.037Z</time>
      </trkpt>
      <trkpt lat="47.552556" lon="7.832977">
        <ele>310.608753</ele>
        <time>2021-11-07T10:56:32.855Z</time>
      </trkpt>
      <trkpt lat="47.552616" lon="7.832891">
        <ele>310.384842</ele>
        <time>2021-11-07T10:56:33.658Z</time>
      </trkpt>
      <trkpt lat="47.552690" lon="7.832598">
        <ele>309.796972</ele>
        <time>2021-11-07T10:56:35.865Z</time>
      </trkpt>
      <trkpt lat="47.552645" lon="7.830686">
        <ele>306.067814</ele>
        <time>2021-11-07T10:56:49.003Z</time>
      </trkpt>
      <trkpt lat="47.552554" lon="7.829266">
        <ele>303.921939</ele>
        <time>2021-11-07T10:56:59.290Z</time>
      </trkpt>
      <trkpt lat="47.552416" lon="7.828822">
        <ele>303.342964</ele>
        <time>2021-11-07T10:57:02.955Z</time>
      </trkpt>
      <trkpt lat="47.552404" lon="7.828582">
        <ele>303.057919</ele>
        <time>2021-11-07T10:57:04.871Z</time>
      </trkpt>
      <trkpt lat="47.552421" lon="7.828481">
        <ele>302.934627</ele>
        <time>2021-11-07T10:57:05.627Z</time>
      </trkpt>
      <trkpt lat="47.552477" lon="7.828294">
        <ele>302.692313</ele>
        <time>2021-11-07T10:57:07.203Z</time>
      </trkpt>
      <trkpt lat="47.552515" lon="7.828094">
        <ele>302.446218</ele>
        <time>2021-11-07T10:57:08.923Z</time>
      </trkpt>
      <trkpt lat="47.552491" lon="7.827227">
        <ele>301.606727</ele>
        <time>2021-11-07T10:57:15.836Z</time>
      </trkpt>
      <trkpt lat="47.552536" lon="7.825618">
        <ele>300.788982</ele>
        <time>2021-11-07T10:57:29.712Z</time>
      </trkpt>
      <trkpt lat="47.552567" lon="7.824508">
        <ele>300.230468</ele>
        <time>2021-11-07T10:57:39.708Z</time>
      </trkpt>
      <trkpt lat="47.552896" lon="7.820699">
        <ele>298.348586</ele>
        <time>2021-11-07T10:58:12.431Z</time>
      </trkpt>
      <trkpt lat="47.552948" lon="7.819358">
        <ele>297.747425</ele>
        <time>2021-11-07T10:58:23.971Z</time>
      </trkpt>
      <trkpt lat="47.552844" lon="7.816432">
        <ele>297.398515</ele>
        <time>2021-11-07T10:58:51.605Z</time>
      </trkpt>
      <trkpt lat="47.552711" lon="7.812955">
        <ele>298.597505</ele>
        <time>2021-11-07T10:59:32.259Z</time>
      </trkpt>
      <trkpt lat="47.552566" lon="7.810386">
        <ele>299.736395</ele>
        <time>2021-11-07T11:00:02.291Z</time>
      </trkpt>
      <trkpt lat="47.552398" lon="7.808880">
        <ele>300.423643</ele>
        <time>2021-11-07T11:00:20.772Z</time>
      </trkpt>
      <trkpt lat="47.552068" lon="7.806445">
        <ele>300.977213</ele>
        <time>2021-11-07T11:00:48.850Z</time>
      </trkpt>
      <trkpt lat="47.552015" lon="7.806307">
        <ele>300.996928</ele>
        <time>2021-11-07T11:00:50.690Z</time>
      </trkpt>
      <trkpt lat="47.551895" lon="7.806278">
        <ele>300.910248</ele>
        <time>2021-11-07T11:00:52.029Z</time>
      </trkpt>
      <trkpt lat="47.551651" lon="7.806246">
        <ele>300.735617</ele>
        <time>2021-11-07T11:00:55.666Z</time>
      </trkpt>
      <trkpt lat="47.551671" lon="7.806117">
        <ele>300.671930</ele>
        <time>2021-11-07T11:00:57.001Z</time>
      </trkpt>
      <trkpt lat="47.551681" lon="7.805477">
        <ele>300.363904</ele>
        <time>2021-11-07T11:01:04.722Z</time>
      </trkpt>
      <trkpt lat="47.551686" lon="7.805390">
        <ele>300.321891</ele>
        <time>2021-11-07T11:01:05.712Z</time>
      </trkpt>
      <trkpt lat="47.551709" lon="7.805000">
        <ele>300.133522</ele>
        <time>2021-11-07T11:01:10.370Z</time>
      </trkpt>
      <trkpt lat="47.551731" lon="7.804667">
        <ele>299.972529</ele>
        <time>2021-11-07T11:01:14.862Z</time>
      </trkpt>
      <trkpt lat="47.551744" lon="7.804473">
        <ele>299.878725</ele>
        <time>2021-11-07T11:01:16.905Z</time>
      </trkpt>
      <trkpt lat="47.551741" lon="7.804294">
        <ele>299.792570</ele>
        <time>2021-11-07T11:01:19.091Z</time>
      </trkpt>
      <trkpt lat="47.551692" lon="7.803510">
        <ele>299.638162</ele>
        <time>2021-11-07T11:01:28.334Z</time>
      </trkpt>
      <trkpt lat="47.551751" lon="7.803369">
        <ele>299.615826</ele>
        <time>2021-11-07T11:01:30.369Z</time>
      </trkpt>
      <trkpt lat="47.551744" lon="7.803277">
        <ele>299.603361</ele>
        <time>2021-11-07T11:01:31.084Z</time>
      </trkpt>
      <trkpt lat="47.551732" lon="7.803125">
        <ele>299.582756</ele>
        <time>2021-11-07T11:01:32.558Z</time>
      </trkpt>
      <trkpt lat="47.551666" lon="7.803144">
        <ele>299.569344</ele>
        <time>2021-11-07T11:01:37.225Z</time>
      </trkpt>
      <trkpt lat="47.551598" lon="7.803160">
        <ele>299.555609</ele>
        <time>2021-11-07T11:01:41.970Z</time>
      </trkpt>
      <trkpt lat="47.551163" lon="7.803129">
        <ele>299.468733</ele>
        <time>2021-11-07T11:01:51.012Z</time>
      </trkpt>
      <trkpt lat="47.550981" lon="7.803132">
        <ele>299.432424</ele>
        <time>2021-11-07T11:01:55.025Z</time>
      </trkpt>
      <trkpt lat="47.550196" lon="7.803120">
        <ele>299.520066</ele>
        <time>2021-11-07T11:02:12.351Z</time>
      </trkpt>
      <trkpt lat="47.550134" lon="7.803051">
        <ele>299.546234</ele>
        <time>2021-11-07T11:02:14.033Z</time>
      </trkpt>
      <trkpt lat="47.550146" lon="7.802262">
        <ele>299.725990</ele>
        <time>2021-11-07T11:02:25.416Z</time>
      </trkpt>
      <trkpt lat="47.549879" lon="7.802247">
        <ele>299.816157</ele>
        <time>2021-11-07T11:02:31.195Z</time>
      </trkpt>
      <trkpt lat="47.549481" lon="7.802234">
        <ele>299.950500</ele>
        <time>2021-11-07T11:02:39.918Z</time>
      </trkpt>
      <trkpt lat="47.549410" lon="7.802226">
        <ele>299.973987</ele>
        <time>2021-11-07T11:02:41.520Z</time>
      </trkpt>
      <trkpt lat="47.548999" lon="7.802181">
        <ele>300.036952</ele>
        <time>2021-11-07T11:02:50.224Z</time>
      </trkpt>
      <trkpt lat="47.548877" lon="7.802168">
        <ele>300.055640</ele>
        <time>2021-11-07T11:02:52.733Z</time>
      </trkpt>
      <trkpt lat="47.548626" lon="7.802129">
        <ele>300.094199</ele>
        <time>2021-11-07T11:02:57.940Z</time>
      </trkpt>
      <trkpt lat="47.548607" lon="7.801690">
        <ele>300.139564</ele>
        <time>2021-11-07T11:03:04.014Z</time>
      </trkpt>
      <trkpt lat="47.548596" lon="7.801213">
        <ele>300.188782</ele>
        <time>2021-11-07T11:03:10.546Z</time>
      </trkpt>
      <trkpt lat="47.548576" lon="7.800968">
        <ele>300.214232</ele>
        <time>2021-11-07T11:03:13.908Z</time>
      </trkpt>
      <trkpt lat="47.548569" lon="7.800838">
        <ele>300.227680</ele>
        <time>2021-11-07T11:03:15.674Z</time>
      </trkpt>
      <trkpt lat="47.548560" lon="7.800672">
        <ele>300.244854</ele>
        <time>2021-11-07T11:03:17.990Z</time>
      </trkpt>
      <trkpt lat="47.548545" lon="7.800404">
        <ele>300.304681</ele>
        <time>2021-11-07T11:03:21.636Z</time>
      </trkpt>
      <trkpt lat="47.548519" lon="7.799896">
        <ele>300.426768</ele>
        <time>2021-11-07T11:03:28.918Z</time>
      </trkpt>
      <trkpt lat="47.548514" lon="7.799795">
        <ele>300.451037</ele>
        <time>2021-11-07T11:03:30.483Z</time>
      </trkpt>
      <trkpt lat="47.548535" lon="7.799720">
        <ele>300.470495</ele>
        <time>2021-11-07T11:03:31.659Z</time>
      </trkpt>
      <trkpt lat="47.548459" lon="7.799691">
        <ele>300.498359</ele>
        <time>2021-11-07T11:03:33.276Z</time>
      </trkpt>
      <trkpt lat="47.547912" lon="7.799646">
        <ele>300.692865</ele>
        <time>2021-11-07T11:03:44.471Z</time>
      </trkpt>
      <trkpt lat="47.547540" lon="7.799538">
        <ele>300.827453</ele>
        <time>2021-11-07T11:03:52.420Z</time>
      </trkpt>
      <trkpt lat="47.547517" lon="7.799527">
        <ele>300.836034</ele>
        <time>2021-11-07T11:03:53.162Z</time>
      </trkpt>
      <trkpt lat="47.546418" lon="7.798980">
        <ele>303.513510</ele>
        <time>2021-11-07T11:04:22.973Z</time>
      </trkpt>
      <trkpt lat="47.545807" lon="7.798846">
        <ele>305.110294</ele>
        <time>2021-11-07T11:04:44.052Z</time>
      </trkpt>
      <trkpt lat="47.545731" lon="7.798810">
        <ele>305.316570</ele>
        <time>2021-11-07T11:04:47.010Z</time>
      </trkpt>
      <trkpt lat="47.545731" lon="7.798810">
        <ele>305.316570</ele>
        <time>2021-11-07T11:04:47.037Z</time>
      </trkpt>
      <trkpt lat="47.545731" lon="7.798810">
        <ele>305.316570</ele>
        <time>2021-11-07T11:04:47.040Z</time>
      </trkpt>
      <trkpt lat="47.545581" lon="7.798713">
        <ele>306.001544</ele>
        <time>2021-11-07T11:04:53.536Z</time>
      </trkpt>
      <trkpt lat="47.545511" lon="7.798680">
        <ele>306.436588</ele>
        <time>2021-11-07T11:04:56.231Z</time>
      </trkpt>
      <trkpt lat="47.545449" lon="7.798705">
        <ele>306.817128</ele>
        <time>2021-11-07T11:04:59.178Z</time>
      </trkpt>
      <trkpt lat="47.545396" lon="7.798977">
        <ele>307.948868</ele>
        <time>2021-11-07T11:05:09.109Z</time>
      </trkpt>
      <trkpt lat="47.545182" lon="7.799205">
        <ele>309.509950</ele>
        <time>2021-11-07T11:05:20.028Z</time>
      </trkpt>
      <trkpt lat="47.545096" lon="7.799250">
        <ele>310.050103</ele>
        <time>2021-11-07T11:05:25.638Z</time>
      </trkpt>
      <trkpt lat="47.544827" lon="7.799356">
        <ele>311.698594</ele>
        <time>2021-11-07T11:05:37.313Z</time>
      </trkpt>
      <trkpt lat="47.544749" lon="7.799388">
        <ele>312.177919</ele>
        <time>2021-11-07T11:05:42.485Z</time>
      </trkpt>
      <trkpt lat="47.544568" lon="7.799371">
        <ele>313.252007</ele>
        <time>2021-11-07T11:05:49.759Z</time>
      </trkpt>
      <trkpt lat="47.544345" lon="7.799570">
        <ele>314.793776</ele>
        <time>2021-11-07T11:06:02.157Z</time>
      </trkpt>
      <trkpt lat="47.544184" lon="7.799620">
        <ele>315.767991</ele>
        <time>2021-11-07T11:06:09.070Z</time>
      </trkpt>
      <trkpt lat="47.544071" lon="7.799629">
        <ele>316.323119</ele>
        <time>2021-11-07T11:06:15.583Z</time>
      </trkpt>
      <trkpt lat="47.542998" lon="7.799859">
        <ele>319.779984</ele>
        <time>2021-11-07T11:06:56.920Z</time>
      </trkpt>
      <trkpt lat="47.542307" lon="7.799830">
        <ele>321.905960</ele>
        <time>2021-11-07T11:07:13.239Z</time>
      </trkpt>
      <trkpt lat="47.541705" lon="7.800028">
        <ele>321.321792</ele>
        <time>2021-11-07T11:07:23.928Z</time>
      </trkpt>
      <trkpt lat="47.540897" lon="7.800171">
        <ele>320.550923</ele>
        <time>2021-11-07T11:07:37.137Z</time>
      </trkpt>
      <trkpt lat="47.540644" lon="7.800163">
        <ele>320.311199</ele>
        <time>2021-11-07T11:07:41.513Z</time>
      </trkpt>
      <trkpt lat="47.540260" lon="7.800353">
        <ele>320.321813</ele>
        <time>2021-11-07T11:07:48.542Z</time>
      </trkpt>
      <trkpt lat="47.540192" lon="7.800458">
        <ele>320.354226</ele>
        <time>2021-11-07T11:07:50.009Z</time>
      </trkpt>
      <trkpt lat="47.540006" lon="7.800680">
        <ele>320.433049</ele>
        <time>2021-11-07T11:07:55.182Z</time>
      </trkpt>
      <trkpt lat="47.538256" lon="7.803059">
        <ele>322.055410</ele>
        <time>2021-11-07T11:08:53.319Z</time>
      </trkpt>
      <trkpt lat="47.538164" lon="7.803170">
        <ele>322.175971</ele>
        <time>2021-11-07T11:08:56.786Z</time>
      </trkpt>
      <trkpt lat="47.537755" lon="7.803639">
        <ele>322.651588</ele>
        <time>2021-11-07T11:09:08.998Z</time>
      </trkpt>
      <trkpt lat="47.536875" lon="7.804558">
        <ele>322.842567</ele>
        <time>2021-11-07T11:09:32.670Z</time>
      </trkpt>
      <trkpt lat="47.535828" lon="7.805308">
        <ele>322.896704</ele>
        <time>2021-11-07T11:09:54.185Z</time>
      </trkpt>
      <trkpt lat="47.535092" lon="7.805671">
        <ele>322.798532</ele>
        <time>2021-11-07T11:10:09.330Z</time>
      </trkpt>
      <trkpt lat="47.534894" lon="7.805725">
        <ele>322.773053</ele>
        <time>2021-11-07T11:10:13.117Z</time>
      </trkpt>
      <trkpt lat="47.534648" lon="7.805785">
        <ele>322.741501</ele>
        <time>2021-11-07T11:10:18.439Z</time>
      </trkpt>
      <trkpt lat="47.533723" lon="7.806018">
        <ele>323.444780</ele>
        <time>2021-11-07T11:10:39.535Z</time>
      </trkpt>
      <trkpt lat="47.533186" lon="7.806262">
        <ele>323.906491</ele>
        <time>2021-11-07T11:10:53.575Z</time>
      </trkpt>
      <trkpt lat="47.533091" lon="7.806305">
        <ele>323.988145</ele>
        <time>2021-11-07T11:10:56.381Z</time>
      </trkpt>
      <trkpt lat="47.532546" lon="7.806703">
        <ele>324.356070</ele>
        <time>2021-11-07T11:11:11.198Z</time>
      </trkpt>
      <trkpt lat="47.532581" lon="7.806843">
        <ele>324.399536</ele>
        <time>2021-11-07T11:11:13.967Z</time>
      </trkpt>
      <trkpt lat="47.532412" lon="7.807037">
        <ele>324.491739</ele>
        <time>2021-11-07T11:11:17.512Z</time>
      </trkpt>
      <trkpt lat="47.531735" lon="7.807655">
        <ele>324.834674</ele>
        <time>2021-11-07T11:11:30.489Z</time>
      </trkpt>
      <trkpt lat="47.531380" lon="7.807943">
        <ele>324.960136</ele>
        <time>2021-11-07T11:11:36.338Z</time>
      </trkpt>
      <trkpt lat="47.531066" lon="7.808197">
        <ele>324.780876</ele>
        <time>2021-11-07T11:11:40.920Z</time>
      </trkpt>
      <trkpt lat="47.530684" lon="7.808469">
        <ele>324.568511</ele>
        <time>2021-11-07T11:11:46.289Z</time>
      </trkpt>
      <trkpt lat="47.530585" lon="7.808529">
        <ele>324.514917</ele>
        <time>2021-11-07T11:11:47.447Z</time>
      </trkpt>
      <trkpt lat="47.530543" lon="7.808552">
        <ele>324.492481</ele>
        <time>2021-11-07T11:11:48.350Z</time>
      </trkpt>
      <trkpt lat="47.530041" lon="7.808819">
        <ele>324.225235</ele>
        <time>2021-11-07T11:11:55.561Z</time>
      </trkpt>
      <trkpt lat="47.529966" lon="7.808858">
        <ele>324.185409</ele>
        <time>2021-11-07T11:11:56.444Z</time>
      </trkpt>
      <trkpt lat="47.529594" lon="7.809061">
        <ele>324.199796</ele>
        <time>2021-11-07T11:12:01.680Z</time>
      </trkpt>
      <trkpt lat="47.529513" lon="7.809105">
        <ele>324.249995</ele>
        <time>2021-11-07T11:12:03.404Z</time>
      </trkpt>
      <trkpt lat="47.529336" lon="7.809212">
        <ele>324.361231</ele>
        <time>2021-11-07T11:12:06.595Z</time>
      </trkpt>
      <trkpt lat="47.529274" lon="7.809267">
        <ele>324.403282</ele>
        <time>2021-11-07T11:12:07.393Z</time>
      </trkpt>
      <trkpt lat="47.529208" lon="7.809338">
        <ele>324.450745</ele>
        <time>2021-11-07T11:12:08.969Z</time>
      </trkpt>
      <trkpt lat="47.529208" lon="7.809338">
        <ele>324.450745</ele>
        <time>2021-11-07T11:12:08.973Z</time>
      </trkpt>
      <trkpt lat="47.529208" lon="7.809338">
        <ele>324.450745</ele>
        <time>2021-11-07T11:12:08.986Z</time>
      </trkpt>
      <trkpt lat="47.529100" lon="7.809485">
        <ele>324.536092</ele>
        <time>2021-11-07T11:12:11.661Z</time>
      </trkpt>
      <trkpt lat="47.528791" lon="7.810026">
        <ele>324.814480</ele>
        <time>2021-11-07T11:12:20.208Z</time>
      </trkpt>
      <trkpt lat="47.528632" lon="7.810311">
        <ele>324.959725</ele>
        <time>2021-11-07T11:12:25.433Z</time>
      </trkpt>
      <trkpt lat="47.528551" lon="7.810479">
        <ele>325.040827</ele>
        <time>2021-11-07T11:12:31.018Z</time>
      </trkpt>
      <trkpt lat="47.528485" lon="7.810633">
        <ele>325.112488</ele>
        <time>2021-11-07T11:12:36.480Z</time>
      </trkpt>
      <trkpt lat="47.528166" lon="7.811494">
        <ele>325.833023</ele>
        <time>2021-11-07T11:13:03.785Z</time>
      </trkpt>
      <trkpt lat="47.528071" lon="7.811726">
        <ele>326.036979</ele>
        <time>2021-11-07T11:13:11.530Z</time>
      </trkpt>
      <trkpt lat="47.527992" lon="7.811882">
        <ele>326.183559</ele>
        <time>2021-11-07T11:13:16.789Z</time>
      </trkpt>
      <trkpt lat="47.527856" lon="7.812134">
        <ele>326.426058</ele>
        <time>2021-11-07T11:13:25.912Z</time>
      </trkpt>
      <trkpt lat="47.527551" lon="7.812698">
        <ele>326.969225</ele>
        <time>2021-11-07T11:13:46.245Z</time>
      </trkpt>
      <trkpt lat="47.527523" lon="7.812743">
        <ele>327.015224</ele>
        <time>2021-11-07T11:13:47.747Z</time>
      </trkpt>
      <trkpt lat="47.527405" lon="7.812921">
        <ele>327.211620</ele>
        <time>2021-11-07T11:13:54.580Z</time>
      </trkpt>
      <trkpt lat="47.527344" lon="7.813003">
        <ele>327.315225</ele>
        <time>2021-11-07T11:13:58.496Z</time>
      </trkpt>
      <trkpt lat="47.527245" lon="7.813136">
        <ele>327.483324</ele>
        <time>2021-11-07T11:14:03.816Z</time>
      </trkpt>
      <trkpt lat="47.527132" lon="7.813271">
        <ele>327.665911</ele>
        <time>2021-11-07T11:14:09.809Z</time>
      </trkpt>
      <trkpt lat="47.527100" lon="7.813322">
        <ele>327.725031</ele>
        <time>2021-11-07T11:14:11.931Z</time>
      </trkpt>
      <trkpt lat="47.527062" lon="7.813419">
        <ele>327.820262</ele>
        <time>2021-11-07T11:14:15.432Z</time>
      </trkpt>
      <trkpt lat="47.527029" lon="7.813504">
        <ele>327.903524</ele>
        <time>2021-11-07T11:14:17.960Z</time>
      </trkpt>
      <trkpt lat="47.527017" lon="7.813562">
        <ele>327.955038</ele>
        <time>2021-11-07T11:14:19.556Z</time>
      </trkpt>
      <trkpt lat="47.526991" lon="7.813710">
        <ele>328.084903</ele>
        <time>2021-11-07T11:14:23.598Z</time>
      </trkpt>
      <trkpt lat="47.526961" lon="7.813898">
        <ele>328.248950</ele>
        <time>2021-11-07T11:14:26.616Z</time>
      </trkpt>
      <trkpt lat="47.526721" lon="7.814590">
        <ele>328.909577</ele>
        <time>2021-11-07T11:14:36.503Z</time>
      </trkpt>
      <trkpt lat="47.526652" lon="7.814787">
        <ele>329.098036</ele>
        <time>2021-11-07T11:14:39.709Z</time>
      </trkpt>
      <trkpt lat="47.526655" lon="7.814822">
        <ele>329.127996</ele>
        <time>2021-11-07T11:14:40.528Z</time>
      </trkpt>
      <trkpt lat="47.526579" lon="7.814859">
        <ele>329.228607</ele>
        <time>2021-11-07T11:14:42.155Z</time>
      </trkpt>
      <trkpt lat="47.526478" lon="7.814853">
        <ele>329.355729</ele>
        <time>2021-11-07T11:14:43.939Z</time>
      </trkpt>
      <trkpt lat="47.526394" lon="7.814809">
        <ele>329.495922</ele>
        <time>2021-11-07T11:14:45.742Z</time>
      </trkpt>
      <trkpt lat="47.526135" lon="7.814494">
        <ele>330.083139</ele>
        <time>2021-11-07T11:14:52.894Z</time>
      </trkpt>
      <trkpt lat="47.525874" lon="7.814072">
        <ele>330.760193</ele>
        <time>2021-11-07T11:15:01.338Z</time>
      </trkpt>
      <trkpt lat="47.525829" lon="7.814027">
        <ele>330.855330</ele>
        <time>2021-11-07T11:15:02.569Z</time>
      </trkpt>
      <trkpt lat="47.525640" lon="7.813941">
        <ele>331.201758</ele>
        <time>2021-11-07T11:15:06.782Z</time>
      </trkpt>
      <trkpt lat="47.525265" lon="7.813766">
        <ele>331.890650</ele>
        <time>2021-11-07T11:15:15.296Z</time>
      </trkpt>
      <trkpt lat="47.525103" lon="7.813754">
        <ele>332.174847</ele>
        <time>2021-11-07T11:15:19.246Z</time>
      </trkpt>
      <trkpt lat="47.524982" lon="7.813822">
        <ele>332.401605</ele>
        <time>2021-11-07T11:15:21.979Z</time>
      </trkpt>
      <trkpt lat="47.524963" lon="7.813836">
        <ele>332.438788</ele>
        <time>2021-11-07T11:15:22.411Z</time>
      </trkpt>
      <trkpt lat="47.524645" lon="7.814069">
        <ele>333.265192</ele>
        <time>2021-11-07T11:15:30.394Z</time>
      </trkpt>
      <trkpt lat="47.524601" lon="7.814100">
        <ele>333.384656</ele>
        <time>2021-11-07T11:15:31.497Z</time>
      </trkpt>
      <trkpt lat="47.524286" lon="7.814362">
        <ele>334.270435</ele>
        <time>2021-11-07T11:15:40.729Z</time>
      </trkpt>
      <trkpt lat="47.524032" lon="7.814643">
        <ele>335.047769</ele>
        <time>2021-11-07T11:15:48.732Z</time>
      </trkpt>
      <trkpt lat="47.523994" lon="7.814691">
        <ele>335.170225</ele>
        <time>2021-11-07T11:15:50.087Z</time>
      </trkpt>
      <trkpt lat="47.523836" lon="7.814923">
        <ele>335.715750</ele>
        <time>2021-11-07T11:15:55.973Z</time>
      </trkpt>
      <trkpt lat="47.523757" lon="7.815629">
        <ele>336.900562</ele>
        <time>2021-11-07T11:16:07.332Z</time>
      </trkpt>
      <trkpt lat="47.523730" lon="7.815653">
        <ele>336.978815</ele>
        <time>2021-11-07T11:16:08.704Z</time>
      </trkpt>
      <trkpt lat="47.523608" lon="7.815695">
        <ele>337.301716</ele>
        <time>2021-11-07T11:16:11.911Z</time>
      </trkpt>
      <trkpt lat="47.522090" lon="7.815952">
        <ele>341.240593</ele>
        <time>2021-11-07T11:16:50.314Z</time>
      </trkpt>
      <trkpt lat="47.521870" lon="7.815989">
        <ele>341.836882</ele>
        <time>2021-11-07T11:16:55.136Z</time>
      </trkpt>
      <trkpt lat="47.521699" lon="7.816019">
        <ele>342.332924</ele>
        <time>2021-11-07T11:16:59.827Z</time>
      </trkpt>
      <trkpt lat="47.521383" lon="7.816075">
        <ele>343.249715</ele>
        <time>2021-11-07T11:17:08.165Z</time>
      </trkpt>
      <trkpt lat="47.521199" lon="7.816108">
        <ele>343.783634</ele>
        <time>2021-11-07T11:17:12.733Z</time>
      </trkpt>
      <trkpt lat="47.521087" lon="7.816144">
        <ele>344.113783</ele>
        <time>2021-11-07T11:17:15.636Z</time>
      </trkpt>
      <trkpt lat="47.521028" lon="7.816163">
        <ele>344.287716</ele>
        <time>2021-11-07T11:17:17.917Z</time>
      </trkpt>
      <trkpt lat="47.520578" lon="7.816306">
        <ele>345.613537</ele>
        <time>2021-11-07T11:17:30.243Z</time>
      </trkpt>
      <trkpt lat="47.520002" lon="7.816556">
        <ele>347.236124</ele>
        <time>2021-11-07T11:17:46.508Z</time>
      </trkpt>
      <trkpt lat="47.519959" lon="7.816575">
        <ele>347.341111</ele>
        <time>2021-11-07T11:17:47.790Z</time>
      </trkpt>
      <trkpt lat="47.519807" lon="7.816661">
        <ele>347.721805</ele>
        <time>2021-11-07T11:17:51.804Z</time>
      </trkpt>
      <trkpt lat="47.519453" lon="7.816861">
        <ele>348.608259</ele>
        <time>2021-11-07T11:18:01.564Z</time>
      </trkpt>
      <trkpt lat="47.518941" lon="7.817228">
        <ele>349.939104</ele>
        <time>2021-11-07T11:18:14.816Z</time>
      </trkpt>
      <trkpt lat="47.518481" lon="7.817598">
        <ele>351.156464</ele>
        <time>2021-11-07T11:18:26.562Z</time>
      </trkpt>
      <trkpt lat="47.518220" lon="7.817823">
        <ele>351.834055</ele>
        <time>2021-11-07T11:18:32.956Z</time>
      </trkpt>
      <trkpt lat="47.518035" lon="7.818005">
        <ele>352.332381</ele>
        <time>2021-11-07T11:18:37.664Z</time>
      </trkpt>
      <trkpt lat="47.517657" lon="7.818442">
        <ele>353.408340</ele>
        <time>2021-11-07T11:18:48.074Z</time>
      </trkpt>
      <trkpt lat="47.516786" lon="7.819655">
        <ele>357.181836</ele>
        <time>2021-11-07T11:19:19.099Z</time>
      </trkpt>
      <trkpt lat="47.515587" lon="7.820532">
        <ele>363.213616</ele>
        <time>2021-11-07T11:20:08.004Z</time>
      </trkpt>
      <trkpt lat="47.515469" lon="7.820644">
        <ele>363.661488</ele>
        <time>2021-11-07T11:20:13.529Z</time>
      </trkpt>
      <trkpt lat="47.515268" lon="7.820836">
        <ele>364.425813</ele>
        <time>2021-11-07T11:20:20.504Z</time>
      </trkpt>
      <trkpt lat="47.515202" lon="7.820909">
        <ele>364.689053</ele>
        <time>2021-11-07T11:20:23.846Z</time>
      </trkpt>
      <trkpt lat="47.515036" lon="7.821090">
        <ele>365.347791</ele>
        <time>2021-11-07T11:20:29.706Z</time>
      </trkpt>
      <trkpt lat="47.514821" lon="7.821292">
        <ele>366.161431</ele>
        <time>2021-11-07T11:20:37.280Z</time>
      </trkpt>
      <trkpt lat="47.514708" lon="7.821376">
        <ele>366.565458</ele>
        <time>2021-11-07T11:20:40.452Z</time>
      </trkpt>
      <trkpt lat="47.514302" lon="7.821660">
        <ele>368.000264</ele>
        <time>2021-11-07T11:20:52.156Z</time>
      </trkpt>
      <trkpt lat="47.513483" lon="7.822231">
        <ele>369.498069</ele>
        <time>2021-11-07T11:21:08.304Z</time>
      </trkpt>
      <trkpt lat="47.512648" lon="7.822935">
        <ele>370.410436</ele>
        <time>2021-11-07T11:21:24.052Z</time>
      </trkpt>
      <trkpt lat="47.512263" lon="7.823167">
        <ele>371.361168</ele>
        <time>2021-11-07T11:21:32.550Z</time>
      </trkpt>
      <trkpt lat="47.512067" lon="7.823229">
        <ele>372.111552</ele>
        <time>2021-11-07T11:21:37.453Z</time>
      </trkpt>
      <trkpt lat="47.511863" lon="7.823271">
        <ele>372.882675</ele>
        <time>2021-11-07T11:21:42.393Z</time>
      </trkpt>
      <trkpt lat="47.510706" lon="7.823221">
        <ele>377.216315</ele>
        <time>2021-11-07T11:22:21.002Z</time>
      </trkpt>
      <trkpt lat="47.510203" lon="7.823212">
        <ele>380.242657</ele>
        <time>2021-11-07T11:22:40.024Z</time>
      </trkpt>
      <trkpt lat="47.509744" lon="7.823275">
        <ele>383.096115</ele>
        <time>2021-11-07T11:22:58.191Z</time>
      </trkpt>
      <trkpt lat="47.509075" lon="7.823456">
        <ele>387.305902</ele>
        <time>2021-11-07T11:23:28.272Z</time>
      </trkpt>
      <trkpt lat="47.508288" lon="7.824180">
        <ele>391.423001</ele>
        <time>2021-11-07T11:24:03.734Z</time>
      </trkpt>
      <trkpt lat="47.507990" lon="7.824326">
        <ele>392.675998</ele>
        <time>2021-11-07T11:24:13.342Z</time>
      </trkpt>
      <trkpt lat="47.507017" lon="7.824678">
        <ele>395.735338</ele>
        <time>2021-11-07T11:24:37.149Z</time>
      </trkpt>
      <trkpt lat="47.506147" lon="7.825028">
        <ele>395.989783</ele>
        <time>2021-11-07T11:24:50.331Z</time>
      </trkpt>
      <trkpt lat="47.504813" lon="7.825703">
        <ele>396.461059</ele>
        <time>2021-11-07T11:25:09.404Z</time>
      </trkpt>
      <trkpt lat="47.503860" lon="7.825735">
        <ele>396.821453</ele>
        <time>2021-11-07T11:25:25.507Z</time>
      </trkpt>
      <trkpt lat="47.503509" lon="7.825771">
        <ele>397.855205</ele>
        <time>2021-11-07T11:25:33.226Z</time>
      </trkpt>
      <trkpt lat="47.503225" lon="7.825809">
        <ele>398.906466</ele>
        <time>2021-11-07T11:25:40.250Z</time>
      </trkpt>
      <trkpt lat="47.503195" lon="7.825807">
        <ele>399.017176</ele>
        <time>2021-11-07T11:25:40.991Z</time>
      </trkpt>
      <trkpt lat="47.503143" lon="7.825808">
        <ele>399.208895</ele>
        <time>2021-11-07T11:25:42.185Z</time>
      </trkpt>
      <trkpt lat="47.502825" lon="7.825809">
        <ele>400.381234</ele>
        <time>2021-11-07T11:25:50.852Z</time>
      </trkpt>
      <trkpt lat="47.501557" lon="7.825705">
        <ele>406.763747</ele>
        <time>2021-11-07T11:26:36.003Z</time>
      </trkpt>
      <trkpt lat="47.500385" lon="7.825189">
        <ele>416.121929</ele>
        <time>2021-11-07T11:27:36.335Z</time>
      </trkpt>
      <trkpt lat="47.500269" lon="7.825147">
        <ele>417.035900</ele>
        <time>2021-11-07T11:27:43.394Z</time>
      </trkpt>
      <trkpt lat="47.500062" lon="7.825087">
        <ele>418.604819</ele>
        <time>2021-11-07T11:27:52.270Z</time>
      </trkpt>
      <trkpt lat="47.499714" lon="7.825011">
        <ele>421.209813</ele>
        <time>2021-11-07T11:28:09.235Z</time>
      </trkpt>
      <trkpt lat="47.499602" lon="7.824975">
        <ele>422.058553</ele>
        <time>2021-11-07T11:28:15.851Z</time>
      </trkpt>
      <trkpt lat="47.499488" lon="7.824926">
        <ele>422.937647</ele>
        <time>2021-11-07T11:28:21.462Z</time>
      </trkpt>
      <trkpt lat="47.498586" lon="7.824227">
        <ele>430.477466</ele>
        <time>2021-11-07T11:29:05.741Z</time>
      </trkpt>
      <trkpt lat="47.498343" lon="7.824061">
        <ele>431.316276</ele>
        <time>2021-11-07T11:29:14.625Z</time>
      </trkpt>
      <trkpt lat="47.498162" lon="7.823883">
        <ele>431.952968</ele>
        <time>2021-11-07T11:29:22.025Z</time>
      </trkpt>
      <trkpt lat="47.497246" lon="7.823247">
        <ele>434.917366</ele>
        <time>2021-11-07T11:29:46.588Z</time>
      </trkpt>
      <trkpt lat="47.496927" lon="7.823151">
        <ele>435.812028</ele>
        <time>2021-11-07T11:29:52.506Z</time>
      </trkpt>
      <trkpt lat="47.496704" lon="7.823163">
        <ele>435.307528</ele>
        <time>2021-11-07T11:29:59.698Z</time>
      </trkpt>
      <trkpt lat="47.496375" lon="7.823140">
        <ele>434.562884</ele>
        <time>2021-11-07T11:30:03.385Z</time>
      </trkpt>
      <trkpt lat="47.496320" lon="7.823139">
        <ele>434.438529</ele>
        <time>2021-11-07T11:30:03.880Z</time>
      </trkpt>
      <trkpt lat="47.496254" lon="7.823140">
        <ele>434.289306</ele>
        <time>2021-11-07T11:30:04.441Z</time>
      </trkpt>
      <trkpt lat="47.496106" lon="7.823142">
        <ele>433.954688</ele>
        <time>2021-11-07T11:30:07.149Z</time>
      </trkpt>
      <trkpt lat="47.495873" lon="7.823177">
        <ele>433.425208</ele>
        <time>2021-11-07T11:30:09.361Z</time>
      </trkpt>
      <trkpt lat="47.495577" lon="7.823253">
        <ele>432.746006</ele>
        <time>2021-11-07T11:30:12.727Z</time>
      </trkpt>
      <trkpt lat="47.495618" lon="7.823118">
        <ele>432.519914</ele>
        <time>2021-11-07T11:30:14.017Z</time>
      </trkpt>
      <trkpt lat="47.495778" lon="7.822564">
        <ele>431.539846</ele>
        <time>2021-11-07T11:30:19.972Z</time>
      </trkpt>
      <trkpt lat="47.495806" lon="7.822522">
        <ele>431.418359</ele>
        <time>2021-11-07T11:30:20.473Z</time>
      </trkpt>
      <trkpt lat="47.495858" lon="7.822426">
        <ele>431.165019</ele>
        <time>2021-11-07T11:30:21.800Z</time>
      </trkpt>
      <trkpt lat="47.496103" lon="7.821579">
        <ele>429.267981</ele>
        <time>2021-11-07T11:30:30.148Z</time>
      </trkpt>
      <trkpt lat="47.496212" lon="7.821541">
        <ele>428.926723</ele>
        <time>2021-11-07T11:30:31.849Z</time>
      </trkpt>
      <trkpt lat="47.496576" lon="7.821733">
        <ele>427.749128</ele>
        <time>2021-11-07T11:30:37.235Z</time>
      </trkpt>
      <trkpt lat="47.497131" lon="7.821903">
        <ele>426.598821</ele>
        <time>2021-11-07T11:30:46.782Z</time>
      </trkpt>
      <trkpt lat="47.497346" lon="7.821919">
        <ele>427.354038</ele>
        <time>2021-11-07T11:30:52.347Z</time>
      </trkpt>
      <trkpt lat="47.497759" lon="7.822063">
        <ele>428.842586</ele>
        <time>2021-11-07T11:31:03.993Z</time>
      </trkpt>
      <trkpt lat="47.499353" lon="7.822037">
        <ele>436.658155</ele>
        <time>2021-11-07T11:32:12.237Z</time>
      </trkpt>
      <trkpt lat="47.499878" lon="7.821940">
        <ele>440.763130</ele>
        <time>2021-11-07T11:32:37.543Z</time>
      </trkpt>
      <trkpt lat="47.499930" lon="7.821891">
        <ele>441.241406</ele>
        <time>2021-11-07T11:32:42.192Z</time>
      </trkpt>
      <trkpt lat="47.499935" lon="7.821803">
        <ele>441.704310</ele>
        <time>2021-11-07T11:32:44.881Z</time>
      </trkpt>
      <trkpt lat="47.499794" lon="7.821651">
        <ele>443.057685</ele>
        <time>2021-11-07T11:32:52.969Z</time>
      </trkpt>
      <trkpt lat="47.499470" lon="7.821532">
        <ele>445.647767</ele>
        <time>2021-11-07T11:33:14.975Z</time>
      </trkpt>
      <trkpt lat="47.499265" lon="7.821430">
        <ele>447.601887</ele>
        <time>2021-11-07T11:33:26.127Z</time>
      </trkpt>
      <trkpt lat="47.499176" lon="7.821401">
        <ele>448.562382</ele>
        <time>2021-11-07T11:33:33.794Z</time>
      </trkpt>
      <trkpt lat="47.498885" lon="7.821202">
        <ele>451.940952</ele>
        <time>2021-11-07T11:33:53.454Z</time>
      </trkpt>
      <trkpt lat="47.498677" lon="7.820978">
        <ele>454.652065</ele>
        <time>2021-11-07T11:34:10.188Z</time>
      </trkpt>
      <trkpt lat="47.498469" lon="7.820716">
        <ele>457.530704</ele>
        <time>2021-11-07T11:34:29.004Z</time>
      </trkpt>
      <trkpt lat="47.498430" lon="7.820512">
        <ele>459.040370</ele>
        <time>2021-11-07T11:34:34.948Z</time>
      </trkpt>
      <trkpt lat="47.498430" lon="7.820389">
        <ele>459.916221</ele>
        <time>2021-11-07T11:34:42.644Z</time>
      </trkpt>
      <trkpt lat="47.498461" lon="7.820307">
        <ele>460.585319</ele>
        <time>2021-11-07T11:34:48.473Z</time>
      </trkpt>
      <trkpt lat="47.498687" lon="7.820104">
        <ele>463.371586</ele>
        <time>2021-11-07T11:35:01.982Z</time>
      </trkpt>
      <trkpt lat="47.499255" lon="7.820064">
        <ele>468.876281</ele>
        <time>2021-11-07T11:35:36.306Z</time>
      </trkpt>
      <trkpt lat="47.499442" lon="7.820106">
        <ele>470.616912</ele>
        <time>2021-11-07T11:35:47.928Z</time>
      </trkpt>
      <trkpt lat="47.499513" lon="7.820122">
        <ele>471.277843</ele>
        <time>2021-11-07T11:35:54.092Z</time>
      </trkpt>
      <trkpt lat="47.500268" lon="7.820306">
        <ele>478.319537</ele>
        <time>2021-11-07T11:36:35.864Z</time>
      </trkpt>
      <trkpt lat="47.500800" lon="7.820309">
        <ele>483.291709</ele>
        <time>2021-11-07T11:37:03.200Z</time>
      </trkpt>
      <trkpt lat="47.502160" lon="7.820734">
        <ele>496.931117</ele>
        <time>2021-11-07T11:38:20.632Z</time>
      </trkpt>
      <trkpt lat="47.502873" lon="7.820715">
        <ele>505.192578</ele>
        <time>2021-11-07T11:39:15.289Z</time>
      </trkpt>
      <trkpt lat="47.503275" lon="7.820428">
        <ele>510.885644</ele>
        <time>2021-11-07T11:39:48.987Z</time>
      </trkpt>
      <trkpt lat="47.503506" lon="7.820180">
        <ele>514.525611</ele>
        <time>2021-11-07T11:40:08.599Z</time>
      </trkpt>
      <trkpt lat="47.503537" lon="7.820146">
        <ele>515.017752</ele>
        <time>2021-11-07T11:40:11.319Z</time>
      </trkpt>
      <trkpt lat="47.503564" lon="7.820022">
        <ele>516.140406</ele>
        <time>2021-11-07T11:40:20.059Z</time>
      </trkpt>
      <trkpt lat="47.503563" lon="7.819933">
        <ele>516.907435</ele>
        <time>2021-11-07T11:40:25.149Z</time>
      </trkpt>
      <trkpt lat="47.503466" lon="7.819760">
        <ele>518.844780</ele>
        <time>2021-11-07T11:40:33.071Z</time>
      </trkpt>
      <trkpt lat="47.503035" lon="7.819396">
        <ele>524.324458</ele>
        <time>2021-11-07T11:41:08.055Z</time>
      </trkpt>
      <trkpt lat="47.502869" lon="7.819255">
        <ele>525.941240</ele>
        <time>2021-11-07T11:41:19.369Z</time>
      </trkpt>
      <trkpt lat="47.502387" lon="7.819173">
        <ele>530.039834</ele>
        <time>2021-11-07T11:41:48.773Z</time>
      </trkpt>
      <trkpt lat="47.502174" lon="7.819017">
        <ele>532.047393</ele>
        <time>2021-11-07T11:42:03.247Z</time>
      </trkpt>
      <trkpt lat="47.501637" lon="7.818426">
        <ele>537.700267</ele>
        <time>2021-11-07T11:42:30.308Z</time>
      </trkpt>
      <trkpt lat="47.500974" lon="7.817424">
        <ele>541.172178</ele>
        <time>2021-11-07T11:43:06.041Z</time>
      </trkpt>
      <trkpt lat="47.500349" lon="7.817070">
        <ele>543.562280</ele>
        <time>2021-11-07T11:43:27.014Z</time>
      </trkpt>
      <trkpt lat="47.500217" lon="7.817010">
        <ele>544.055461</ele>
        <time>2021-11-07T11:43:31.558Z</time>
      </trkpt>
      <trkpt lat="47.500080" lon="7.816931">
        <ele>544.345946</ele>
        <time>2021-11-07T11:43:35.402Z</time>
      </trkpt>
      <trkpt lat="47.499494" lon="7.816639">
        <ele>544.851286</ele>
        <time>2021-11-07T11:43:52.171Z</time>
      </trkpt>
      <trkpt lat="47.499305" lon="7.816477">
        <ele>545.029784</ele>
        <time>2021-11-07T11:43:56.902Z</time>
      </trkpt>
      <trkpt lat="47.499090" lon="7.816301">
        <ele>545.230583</ele>
        <time>2021-11-07T11:44:02.598Z</time>
      </trkpt>
      <trkpt lat="47.498274" lon="7.815417">
        <ele>545.794410</ele>
        <time>2021-11-07T11:44:21.696Z</time>
      </trkpt>
      <trkpt lat="47.498175" lon="7.815269">
        <ele>545.812206</ele>
        <time>2021-11-07T11:44:24.603Z</time>
      </trkpt>
      <trkpt lat="47.498156" lon="7.815189">
        <ele>545.819452</ele>
        <time>2021-11-07T11:44:25.489Z</time>
      </trkpt>
      <trkpt lat="47.498025" lon="7.814801">
        <ele>545.856517</ele>
        <time>2021-11-07T11:44:31.849Z</time>
      </trkpt>
      <trkpt lat="47.497689" lon="7.814212">
        <ele>545.922388</ele>
        <time>2021-11-07T11:44:44.384Z</time>
      </trkpt>
      <trkpt lat="47.497443" lon="7.813645">
        <ele>545.943487</ele>
        <time>2021-11-07T11:44:54.786Z</time>
      </trkpt>
      <trkpt lat="47.497382" lon="7.813505">
        <ele>545.873328</ele>
        <time>2021-11-07T11:44:56.508Z</time>
      </trkpt>
      <trkpt lat="47.497290" lon="7.813365">
        <ele>545.791076</ele>
        <time>2021-11-07T11:44:58.875Z</time>
      </trkpt>
      <trkpt lat="47.497123" lon="7.813178">
        <ele>545.660541</ele>
        <time>2021-11-07T11:45:02.463Z</time>
      </trkpt>
      <trkpt lat="47.497103" lon="7.813156">
        <ele>545.645007</ele>
        <time>2021-11-07T11:45:02.819Z</time>
      </trkpt>
      <trkpt lat="47.496999" lon="7.813075">
        <ele>545.571751</ele>
        <time>2021-11-07T11:45:05.531Z</time>
      </trkpt>
      <trkpt lat="47.496914" lon="7.813010">
        <ele>545.512111</ele>
        <time>2021-11-07T11:45:07.549Z</time>
      </trkpt>
      <trkpt lat="47.496809" lon="7.812974">
        <ele>545.444926</ele>
        <time>2021-11-07T11:45:09.277Z</time>
      </trkpt>
      <trkpt lat="47.496684" lon="7.812978">
        <ele>545.366988</ele>
        <time>2021-11-07T11:45:11.639Z</time>
      </trkpt>
      <trkpt lat="47.496549" lon="7.813010">
        <ele>545.281763</ele>
        <time>2021-11-07T11:45:14.489Z</time>
      </trkpt>
      <trkpt lat="47.496523" lon="7.813016">
        <ele>545.265360</ele>
        <time>2021-11-07T11:45:14.979Z</time>
      </trkpt>
      <trkpt lat="47.496482" lon="7.813110">
        <ele>545.218238</ele>
        <time>2021-11-07T11:45:16.115Z</time>
      </trkpt>
      <trkpt lat="47.496444" lon="7.813273">
        <ele>545.145616</ele>
        <time>2021-11-07T11:45:18.362Z</time>
      </trkpt>
      <trkpt lat="47.496428" lon="7.813325">
        <ele>545.121552</ele>
        <time>2021-11-07T11:45:19.124Z</time>
      </trkpt>
      <trkpt lat="47.496386" lon="7.813495">
        <ele>545.045318</ele>
        <time>2021-11-07T11:45:21.725Z</time>
      </trkpt>
      <trkpt lat="47.496365" lon="7.813691">
        <ele>544.961738</ele>
        <time>2021-11-07T11:45:23.726Z</time>
      </trkpt>
      <trkpt lat="47.496345" lon="7.814040">
        <ele>544.796406</ele>
        <time>2021-11-07T11:45:29.000Z</time>
      </trkpt>
      <trkpt lat="47.496292" lon="7.814199">
        <ele>544.687082</ele>
        <time>2021-11-07T11:45:30.755Z</time>
      </trkpt>
      <trkpt lat="47.495492" lon="7.814965">
        <ele>543.817509</ele>
        <time>2021-11-07T11:45:46.592Z</time>
      </trkpt>
      <trkpt lat="47.495356" lon="7.814987">
        <ele>543.692651</ele>
        <time>2021-11-07T11:45:48.584Z</time>
      </trkpt>
      <trkpt lat="47.495263" lon="7.814929">
        <ele>543.600548</ele>
        <time>2021-11-07T11:45:50.556Z</time>
      </trkpt>
      <trkpt lat="47.494740" lon="7.814013">
        <ele>543.604792</ele>
        <time>2021-11-07T11:46:07.771Z</time>
      </trkpt>
      <trkpt lat="47.494606" lon="7.814019">
        <ele>543.742389</ele>
        <time>2021-11-07T11:46:10.836Z</time>
      </trkpt>
      <trkpt lat="47.494431" lon="7.814326">
        <ele>544.020934</ele>
        <time>2021-11-07T11:46:17.253Z</time>
      </trkpt>
      <trkpt lat="47.494369" lon="7.814392">
        <ele>544.099319</ele>
        <time>2021-11-07T11:46:19.369Z</time>
      </trkpt>
      <trkpt lat="47.494321" lon="7.814412">
        <ele>544.150500</ele>
        <time>2021-11-07T11:46:20.640Z</time>
      </trkpt>
      <trkpt lat="47.494164" lon="7.814361">
        <ele>544.315477</ele>
        <time>2021-11-07T11:46:24.271Z</time>
      </trkpt>
      <trkpt lat="47.493814" lon="7.814075">
        <ele>544.725823</ele>
        <time>2021-11-07T11:46:34.824Z</time>
      </trkpt>
      <trkpt lat="47.493666" lon="7.813937">
        <ele>544.905359</ele>
        <time>2021-11-07T11:46:39.830Z</time>
      </trkpt>
      <trkpt lat="47.493451" lon="7.813743">
        <ele>545.313588</ele>
        <time>2021-11-07T11:46:46.488Z</time>
      </trkpt>
      <trkpt lat="47.493235" lon="7.813551">
        <ele>545.935483</ele>
        <time>2021-11-07T11:46:53.175Z</time>
      </trkpt>
      <trkpt lat="47.493099" lon="7.813443">
        <ele>546.316426</ele>
        <time>2021-11-07T11:46:57.882Z</time>
      </trkpt>
      <trkpt lat="47.492642" lon="7.813213">
        <ele>547.507824</ele>
        <time>2021-11-07T11:47:11.279Z</time>
      </trkpt>
      <trkpt lat="47.491947" lon="7.813197">
        <ele>549.223425</ele>
        <time>2021-11-07T11:47:32.245Z</time>
      </trkpt>
      <trkpt lat="47.491451" lon="7.813408">
        <ele>551.758363</ele>
        <time>2021-11-07T11:47:51.639Z</time>
      </trkpt>
      <trkpt lat="47.490925" lon="7.813921">
        <ele>555.272804</ele>
        <time>2021-11-07T11:48:19.066Z</time>
      </trkpt>
      <trkpt lat="47.490693" lon="7.813896">
        <ele>556.570548</ele>
        <time>2021-11-07T11:48:28.140Z</time>
      </trkpt>
      <trkpt lat="47.490609" lon="7.813824">
        <ele>557.112107</ele>
        <time>2021-11-07T11:48:33.272Z</time>
      </trkpt>
      <trkpt lat="47.490928" lon="7.813010">
        <ele>561.410988</ele>
        <time>2021-11-07T11:48:58.319Z</time>
      </trkpt>
      <trkpt lat="47.491001" lon="7.812847">
        <ele>562.639208</ele>
        <time>2021-11-07T11:49:05.090Z</time>
      </trkpt>
      <trkpt lat="47.491212" lon="7.812513">
        <ele>565.511015</ele>
        <time>2021-11-07T11:49:22.115Z</time>
      </trkpt>
      <trkpt lat="47.491595" lon="7.812210">
        <ele>569.547788</ele>
        <time>2021-11-07T11:49:44.914Z</time>
      </trkpt>
      <trkpt lat="47.492008" lon="7.811905">
        <ele>573.838088</ele>
        <time>2021-11-07T11:50:09.786Z</time>
      </trkpt>
      <trkpt lat="47.492176" lon="7.811763">
        <ele>575.636406</ele>
        <time>2021-11-07T11:50:23.242Z</time>
      </trkpt>
      <trkpt lat="47.492264" lon="7.811614">
        <ele>576.907729</ele>
        <time>2021-11-07T11:50:29.663Z</time>
      </trkpt>
      <trkpt lat="47.492273" lon="7.811452">
        <ele>577.974699</ele>
        <time>2021-11-07T11:50:34.309Z</time>
      </trkpt>
      <trkpt lat="47.492257" lon="7.811384">
        <ele>578.447346</ele>
        <time>2021-11-07T11:50:37.925Z</time>
      </trkpt>
      <trkpt lat="47.492257" lon="7.811384">
        <ele>578.447346</ele>
        <time>2021-11-07T11:50:38.202Z</time>
      </trkpt>
      <trkpt lat="47.492224" lon="7.811327">
        <ele>578.940057</ele>
        <time>2021-11-07T11:50:41.897Z</time>
      </trkpt>
      <trkpt lat="47.492165" lon="7.811273">
        <ele>579.613970</ele>
        <time>2021-11-07T11:50:45.723Z</time>
      </trkpt>
      <trkpt lat="47.491701" lon="7.811206">
        <ele>584.142968</ele>
        <time>2021-11-07T11:51:11.338Z</time>
      </trkpt>
      <trkpt lat="47.491536" lon="7.811112">
        <ele>585.860544</ele>
        <time>2021-11-07T11:51:22.706Z</time>
      </trkpt>
      <trkpt lat="47.491417" lon="7.811033">
        <ele>587.127567</ele>
        <time>2021-11-07T11:51:29.494Z</time>
      </trkpt>
      <trkpt lat="47.491356" lon="7.811021">
        <ele>587.725373</ele>
        <time>2021-11-07T11:51:32.093Z</time>
      </trkpt>
      <trkpt lat="47.491305" lon="7.811022">
        <ele>588.220863</ele>
        <time>2021-11-07T11:51:33.998Z</time>
      </trkpt>
      <trkpt lat="47.491210" lon="7.811067">
        <ele>589.189874</ele>
        <time>2021-11-07T11:51:41.409Z</time>
      </trkpt>
      <trkpt lat="47.491168" lon="7.811103">
        <ele>589.661382</ele>
        <time>2021-11-07T11:51:45.099Z</time>
      </trkpt>
      <trkpt lat="47.491099" lon="7.811167">
        <ele>590.452462</ele>
        <time>2021-11-07T11:51:48.359Z</time>
      </trkpt>
      <trkpt lat="47.490921" lon="7.811332">
        <ele>592.492869</ele>
        <time>2021-11-07T11:51:58.847Z</time>
      </trkpt>
      <trkpt lat="47.490608" lon="7.811558">
        <ele>594.840491</ele>
        <time>2021-11-07T11:52:13.559Z</time>
      </trkpt>
      <trkpt lat="47.490230" lon="7.811766">
        <ele>596.873862</ele>
        <time>2021-11-07T11:52:28.568Z</time>
      </trkpt>
      <trkpt lat="47.489734" lon="7.811930">
        <ele>599.436370</ele>
        <time>2021-11-07T11:52:46.795Z</time>
      </trkpt>
      <trkpt lat="47.488654" lon="7.812154">
        <ele>604.317235</ele>
        <time>2021-11-07T11:53:15.959Z</time>
      </trkpt>
      <trkpt lat="47.488525" lon="7.812197">
        <ele>604.791781</ele>
        <time>2021-11-07T11:53:20.333Z</time>
      </trkpt>
      <trkpt lat="47.486782" lon="7.812718">
        <ele>610.087141</ele>
        <time>2021-11-07T11:54:13.508Z</time>
      </trkpt>
      <trkpt lat="47.486531" lon="7.812839">
        <ele>610.500435</ele>
        <time>2021-11-07T11:54:20.458Z</time>
      </trkpt>
      <trkpt lat="47.485925" lon="7.813196">
        <ele>611.521614</ele>
        <time>2021-11-07T11:54:34.449Z</time>
      </trkpt>
      <trkpt lat="47.485144" lon="7.813866">
        <ele>608.574341</ele>
        <time>2021-11-07T11:54:44.457Z</time>
      </trkpt>
      <trkpt lat="47.484810" lon="7.814067">
        <ele>606.317115</ele>
        <time>2021-11-07T11:54:47.666Z</time>
      </trkpt>
      <trkpt lat="47.484732" lon="7.814081">
        <ele>605.825236</ele>
        <time>2021-11-07T11:54:48.317Z</time>
      </trkpt>
      <trkpt lat="47.484689" lon="7.814083">
        <ele>605.555911</ele>
        <time>2021-11-07T11:54:49.418Z</time>
      </trkpt>
      <trkpt lat="47.484558" lon="7.814061">
        <ele>604.730552</ele>
        <time>2021-11-07T11:54:53.126Z</time>
      </trkpt>
      <trkpt lat="47.484474" lon="7.814023">
        <ele>604.180665</ele>
        <time>2021-11-07T11:54:55.519Z</time>
      </trkpt>
      <trkpt lat="47.484375" lon="7.813958">
        <ele>603.502631</ele>
        <time>2021-11-07T11:54:56.410Z</time>
      </trkpt>
      <trkpt lat="47.483867" lon="7.813452">
        <ele>598.303509</ele>
        <time>2021-11-07T11:55:01.870Z</time>
      </trkpt>
      <trkpt lat="47.483804" lon="7.813389">
        <ele>597.254082</ele>
        <time>2021-11-07T11:55:02.498Z</time>
      </trkpt>
      <trkpt lat="47.483708" lon="7.813293">
        <ele>595.654953</ele>
        <time>2021-11-07T11:55:03.513Z</time>
      </trkpt>
      <trkpt lat="47.483493" lon="7.813178">
        <ele>592.499719</ele>
        <time>2021-11-07T11:55:05.466Z</time>
      </trkpt>
      <trkpt lat="47.483220" lon="7.813099">
        <ele>588.660536</ele>
        <time>2021-11-07T11:55:07.840Z</time>
      </trkpt>
      <trkpt lat="47.482949" lon="7.813114">
        <ele>584.917713</ele>
        <time>2021-11-07T11:55:10.087Z</time>
      </trkpt>
      <trkpt lat="47.482420" lon="7.813239">
        <ele>577.524212</ele>
        <time>2021-11-07T11:55:14.493Z</time>
      </trkpt>
      <trkpt lat="47.482097" lon="7.813263">
        <ele>572.729348</ele>
        <time>2021-11-07T11:55:17.149Z</time>
      </trkpt>
      <trkpt lat="47.481920" lon="7.813196">
        <ele>569.921466</ele>
        <time>2021-11-07T11:55:18.646Z</time>
      </trkpt>
      <trkpt lat="47.481456" lon="7.813058">
        <ele>562.647713</ele>
        <time>2021-11-07T11:55:22.542Z</time>
      </trkpt>
      <trkpt lat="47.480872" lon="7.813093">
        <ele>553.664968</ele>
        <time>2021-11-07T11:55:27.393Z</time>
      </trkpt>
      <trkpt lat="47.480713" lon="7.812994">
        <ele>551.013786</ele>
        <time>2021-11-07T11:55:28.850Z</time>
      </trkpt>
      <trkpt lat="47.479735" lon="7.811893">
        <ele>541.810392</ele>
        <time>2021-11-07T11:55:39.465Z</time>
      </trkpt>
      <trkpt lat="47.479687" lon="7.811839">
        <ele>541.437310</ele>
        <time>2021-11-07T11:55:46.557Z</time>
      </trkpt>
      <trkpt lat="47.479473" lon="7.811584">
        <ele>539.737255</ele>
        <time>2021-11-07T11:55:48.837Z</time>
      </trkpt>
      <trkpt lat="47.478943" lon="7.810849">
        <ele>535.701967</ele>
        <time>2021-11-07T11:55:57.221Z</time>
      </trkpt>
      <trkpt lat="47.478809" lon="7.810763">
        <ele>535.009493</ele>
        <time>2021-11-07T11:56:08.570Z</time>
      </trkpt>
      <trkpt lat="47.478566" lon="7.810790">
        <ele>533.854204</ele>
        <time>2021-11-07T11:56:10.699Z</time>
      </trkpt>
      <trkpt lat="47.478335" lon="7.810955">
        <ele>532.638109</ele>
        <time>2021-11-07T11:56:16.234Z</time>
      </trkpt>
      <trkpt lat="47.478231" lon="7.811139">
        <ele>531.869532</ele>
        <time>2021-11-07T11:56:17.612Z</time>
      </trkpt>
      <trkpt lat="47.478204" lon="7.811401">
        <ele>531.020315</ele>
        <time>2021-11-07T11:56:19.206Z</time>
      </trkpt>
      <trkpt lat="47.478262" lon="7.811831">
        <ele>529.615316</ele>
        <time>2021-11-07T11:56:21.769Z</time>
      </trkpt>
      <trkpt lat="47.478245" lon="7.812069">
        <ele>528.848457</ele>
        <time>2021-11-07T11:56:23.236Z</time>
      </trkpt>
      <trkpt lat="47.478216" lon="7.812137">
        <ele>528.500992</ele>
        <time>2021-11-07T11:56:23.688Z</time>
      </trkpt>
      <trkpt lat="47.478172" lon="7.812240">
        <ele>527.716456</ele>
        <time>2021-11-07T11:56:24.414Z</time>
      </trkpt>
      <trkpt lat="47.477609" lon="7.813223">
        <ele>519.420434</ele>
        <time>2021-11-07T11:56:31.969Z</time>
      </trkpt>
      <trkpt lat="47.477546" lon="7.813318">
        <ele>518.563498</ele>
        <time>2021-11-07T11:56:32.719Z</time>
      </trkpt>
      <trkpt lat="47.477516" lon="7.813359">
        <ele>518.174442</ele>
        <time>2021-11-07T11:56:33.064Z</time>
      </trkpt>
      <trkpt lat="47.477155" lon="7.813696">
        <ele>514.108107</ele>
        <time>2021-11-07T11:56:36.986Z</time>
      </trkpt>
      <trkpt lat="47.476980" lon="7.813791">
        <ele>512.332318</ele>
        <time>2021-11-07T11:56:39.154Z</time>
      </trkpt>
      <trkpt lat="47.476884" lon="7.813858">
        <ele>511.305543</ele>
        <time>2021-11-07T11:56:40.020Z</time>
      </trkpt>
      <trkpt lat="47.476563" lon="7.814189">
        <ele>507.318695</ele>
        <time>2021-11-07T11:56:43.400Z</time>
      </trkpt>
      <trkpt lat="47.476534" lon="7.814226">
        <ele>506.928500</ele>
        <time>2021-11-07T11:56:47.442Z</time>
      </trkpt>
      <trkpt lat="47.476334" lon="7.814450">
        <ele>504.372531</ele>
        <time>2021-11-07T11:56:49.604Z</time>
      </trkpt>
      <trkpt lat="47.476204" lon="7.814552">
        <ele>502.873149</ele>
        <time>2021-11-07T11:56:50.815Z</time>
      </trkpt>
      <trkpt lat="47.476150" lon="7.814569">
        <ele>502.310595</ele>
        <time>2021-11-07T11:56:55.602Z</time>
      </trkpt>
      <trkpt lat="47.476077" lon="7.814575">
        <ele>501.565612</ele>
        <time>2021-11-07T11:56:56.205Z</time>
      </trkpt>
      <trkpt lat="47.475705" lon="7.814474">
        <ele>497.711809</ele>
        <time>2021-11-07T11:56:59.392Z</time>
      </trkpt>
      <trkpt lat="47.475471" lon="7.814482">
        <ele>495.326821</ele>
        <time>2021-11-07T11:57:01.339Z</time>
      </trkpt>
      <trkpt lat="47.475276" lon="7.814567">
        <ele>493.255417</ele>
        <time>2021-11-07T11:57:03.102Z</time>
      </trkpt>
      <trkpt lat="47.475210" lon="7.814595">
        <ele>492.247888</ele>
        <time>2021-11-07T11:57:03.671Z</time>
      </trkpt>
      <trkpt lat="47.474961" lon="7.814741">
        <ele>488.249492</ele>
        <time>2021-11-07T11:57:06.279Z</time>
      </trkpt>
      <trkpt lat="47.474804" lon="7.814845">
        <ele>485.681566</ele>
        <time>2021-11-07T11:57:07.696Z</time>
      </trkpt>
      <trkpt lat="47.474584" lon="7.814993">
        <ele>482.073787</ele>
        <time>2021-11-07T11:57:09.832Z</time>
      </trkpt>
      <trkpt lat="47.474430" lon="7.815154">
        <ele>479.258787</ele>
        <time>2021-11-07T11:57:11.472Z</time>
      </trkpt>
      <trkpt lat="47.474375" lon="7.815394">
        <ele>476.701725</ele>
        <time>2021-11-07T11:57:12.935Z</time>
      </trkpt>
      <trkpt lat="47.474616" lon="7.816226">
        <ele>467.568231</ele>
        <time>2021-11-07T11:57:17.941Z</time>
      </trkpt>
      <trkpt lat="47.474739" lon="7.816928">
        <ele>460.237677</ele>
        <time>2021-11-07T11:57:21.967Z</time>
      </trkpt>
      <trkpt lat="47.474739" lon="7.817281">
        <ele>456.668204</ele>
        <time>2021-11-07T11:57:23.919Z</time>
      </trkpt>
      <trkpt lat="47.474641" lon="7.817509">
        <ele>453.936032</ele>
        <time>2021-11-07T11:57:26.025Z</time>
      </trkpt>
      <trkpt lat="47.474613" lon="7.817546">
        <ele>453.374387</ele>
        <time>2021-11-07T11:57:27.295Z</time>
      </trkpt>
      <trkpt lat="47.474555" lon="7.817587">
        <ele>452.412738</ele>
        <time>2021-11-07T11:57:28.081Z</time>
      </trkpt>
      <trkpt lat="47.474389" lon="7.817613">
        <ele>449.915468</ele>
        <time>2021-11-07T11:57:43.269Z</time>
      </trkpt>
      <trkpt lat="47.474233" lon="7.817507">
        <ele>447.347305</ele>
        <time>2021-11-07T11:57:44.727Z</time>
      </trkpt>
      <trkpt lat="47.474210" lon="7.817475">
        <ele>446.874971</ele>
        <time>2021-11-07T11:57:45.306Z</time>
      </trkpt>
      <trkpt lat="47.474182" lon="7.817417">
        <ele>446.154251</ele>
        <time>2021-11-07T11:57:52.262Z</time>
      </trkpt>
      <trkpt lat="47.473926" lon="7.816632">
        <ele>438.511752</ele>
        <time>2021-11-07T11:57:57.852Z</time>
      </trkpt>
      <trkpt lat="47.473837" lon="7.816469">
        <ele>437.564012</ele>
        <time>2021-11-07T11:57:59.029Z</time>
      </trkpt>
      <trkpt lat="47.473743" lon="7.816298">
        <ele>436.567093</ele>
        <time>2021-11-07T11:58:01.909Z</time>
      </trkpt>
      <trkpt lat="47.473230" lon="7.815705">
        <ele>432.210740</ele>
        <time>2021-11-07T11:58:07.523Z</time>
      </trkpt>
      <trkpt lat="47.472623" lon="7.815140">
        <ele>427.410424</ele>
        <time>2021-11-07T11:58:16.040Z</time>
      </trkpt>
      <trkpt lat="47.472505" lon="7.815033">
        <ele>426.367139</ele>
        <time>2021-11-07T11:58:17.401Z</time>
      </trkpt>
      <trkpt lat="47.472320" lon="7.814860">
        <ele>424.717353</ele>
        <time>2021-11-07T11:58:19.538Z</time>
      </trkpt>
      <trkpt lat="47.471093" lon="7.813407">
        <ele>413.286622</ele>
        <time>2021-11-07T11:58:33.120Z</time>
      </trkpt>
      <trkpt lat="47.470923" lon="7.812993">
        <ele>411.851654</ele>
        <time>2021-11-07T11:58:36.181Z</time>
      </trkpt>
      <trkpt lat="47.470835" lon="7.812891">
        <ele>411.361726</ele>
        <time>2021-11-07T11:58:37.315Z</time>
      </trkpt>
      <trkpt lat="47.470794" lon="7.812878">
        <ele>411.177966</ele>
        <time>2021-11-07T11:58:38.083Z</time>
      </trkpt>
      <trkpt lat="47.470744" lon="7.812887">
        <ele>410.957229</ele>
        <time>2021-11-07T11:58:38.531Z</time>
      </trkpt>
      <trkpt lat="47.470614" lon="7.813052">
        <ele>410.206569</ele>
        <time>2021-11-07T11:58:40.158Z</time>
      </trkpt>
      <trkpt lat="47.470607" lon="7.813259">
        <ele>409.592590</ele>
        <time>2021-11-07T11:58:41.856Z</time>
      </trkpt>
      <trkpt lat="47.470938" lon="7.813871">
        <ele>407.270729</ele>
        <time>2021-11-07T11:58:47.247Z</time>
      </trkpt>
      <trkpt lat="47.470969" lon="7.814299">
        <ele>405.995583</ele>
        <time>2021-11-07T11:58:50.721Z</time>
      </trkpt>
      <trkpt lat="47.470838" lon="7.814669">
        <ele>404.402589</ele>
        <time>2021-11-07T11:58:53.810Z</time>
      </trkpt>
      <trkpt lat="47.470596" lon="7.814760">
        <ele>402.990517</ele>
        <time>2021-11-07T11:58:56.165Z</time>
      </trkpt>
      <trkpt lat="47.470163" lon="7.814758">
        <ele>400.541815</ele>
        <time>2021-11-07T11:59:00.160Z</time>
      </trkpt>
      <trkpt lat="47.469960" lon="7.814754">
        <ele>399.393713</ele>
        <time>2021-11-07T11:59:02.177Z</time>
      </trkpt>
      <trkpt lat="47.469647" lon="7.814557">
        <ele>397.470100</ele>
        <time>2021-11-07T11:59:05.181Z</time>
      </trkpt>
      <trkpt lat="47.469608" lon="7.814504">
        <ele>397.170612</ele>
        <time>2021-11-07T11:59:05.656Z</time>
      </trkpt>
      <trkpt lat="47.469564" lon="7.814419">
        <ele>396.761345</ele>
        <time>2021-11-07T11:59:06.258Z</time>
      </trkpt>
      <trkpt lat="47.469477" lon="7.814056">
        <ele>395.198315</ele>
        <time>2021-11-07T11:59:08.623Z</time>
      </trkpt>
      <trkpt lat="47.469471" lon="7.813955">
        <ele>394.743400</ele>
        <time>2021-11-07T11:59:09.196Z</time>
      </trkpt>
      <trkpt lat="47.469445" lon="7.813683">
        <ele>393.510845</ele>
        <time>2021-11-07T11:59:10.828Z</time>
      </trkpt>
      <trkpt lat="47.469382" lon="7.813432">
        <ele>392.309526</ele>
        <time>2021-11-07T11:59:12.392Z</time>
      </trkpt>
      <trkpt lat="47.469261" lon="7.813214">
        <ele>391.043919</ele>
        <time>2021-11-07T11:59:14.101Z</time>
      </trkpt>
      <trkpt lat="47.468968" lon="7.813033">
        <ele>388.936385</ele>
        <time>2021-11-07T11:59:16.937Z</time>
      </trkpt>
      <trkpt lat="47.468898" lon="7.813028">
        <ele>388.471220</ele>
        <time>2021-11-07T11:59:17.540Z</time>
      </trkpt>
      <trkpt lat="47.468231" lon="7.813117">
        <ele>384.026054</ele>
        <time>2021-11-07T11:59:23.730Z</time>
      </trkpt>
      <trkpt lat="47.468087" lon="7.813122">
        <ele>383.808944</ele>
        <time>2021-11-07T11:59:25.185Z</time>
      </trkpt>
      <trkpt lat="47.468086" lon="7.813195">
        <ele>383.782865</ele>
        <time>2021-11-07T11:59:26.577Z</time>
      </trkpt>
      <trkpt lat="47.468127" lon="7.813409">
        <ele>383.703420</ele>
        <time>2021-11-07T11:59:29.392Z</time>
      </trkpt>
      <trkpt lat="47.468067" lon="7.813570">
        <ele>383.637756</ele>
        <time>2021-11-07T11:59:31.195Z</time>
      </trkpt>
      <trkpt lat="47.467665" lon="7.814198">
        <ele>383.328844</ele>
        <time>2021-11-07T11:59:42.043Z</time>
      </trkpt>
      <trkpt lat="47.467606" lon="7.814322">
        <ele>383.274684</ele>
        <time>2021-11-07T11:59:44.760Z</time>
      </trkpt>
      <trkpt lat="47.467466" lon="7.814485">
        <ele>383.180550</ele>
        <time>2021-11-07T11:59:47.982Z</time>
      </trkpt>
      <trkpt lat="47.467298" lon="7.814679">
        <ele>383.067942</ele>
        <time>2021-11-07T11:59:52.274Z</time>
      </trkpt>
      <trkpt lat="47.467147" lon="7.814867">
        <ele>382.963662</ele>
        <time>2021-11-07T11:59:56.489Z</time>
      </trkpt>
      <trkpt lat="47.466725" lon="7.815327">
        <ele>383.439106</ele>
        <time>2021-11-07T12:00:07.910Z</time>
      </trkpt>
      <trkpt lat="47.466451" lon="7.815802">
        <ele>383.927664</ele>
        <time>2021-11-07T12:00:16.341Z</time>
      </trkpt>
      <trkpt lat="47.466154" lon="7.816449">
        <ele>384.539565</ele>
        <time>2021-11-07T12:00:26.351Z</time>
      </trkpt>
      <trkpt lat="47.465596" lon="7.817682">
        <ele>385.127599</ele>
        <time>2021-11-07T12:00:44.069Z</time>
      </trkpt>
      <trkpt lat="47.465540" lon="7.817799">
        <ele>385.147470</ele>
        <time>2021-11-07T12:00:46.260Z</time>
      </trkpt>
      <trkpt lat="47.465427" lon="7.818003">
        <ele>385.184029</ele>
        <time>2021-11-07T12:00:48.795Z</time>
      </trkpt>
      <trkpt lat="47.465094" lon="7.818643">
        <ele>385.295981</ele>
        <time>2021-11-07T12:00:57.672Z</time>
      </trkpt>
      <trkpt lat="47.464944" lon="7.818901">
        <ele>385.343152</ele>
        <time>2021-11-07T12:01:00.577Z</time>
      </trkpt>
      <trkpt lat="47.464148" lon="7.820076">
        <ele>384.494016</ele>
        <time>2021-11-07T12:01:14.579Z</time>
      </trkpt>
      <trkpt lat="47.464075" lon="7.820248">
        <ele>384.370703</ele>
        <time>2021-11-07T12:01:16.120Z</time>
      </trkpt>
      <trkpt lat="47.464024" lon="7.820468">
        <ele>384.229485</ele>
        <time>2021-11-07T12:01:17.997Z</time>
      </trkpt>
      <trkpt lat="47.463968" lon="7.821340">
        <ele>383.792738</ele>
        <time>2021-11-07T12:01:25.110Z</time>
      </trkpt>
      <trkpt lat="47.463994" lon="7.821731">
        <ele>383.932504</ele>
        <time>2021-11-07T12:01:28.513Z</time>
      </trkpt>
      <trkpt lat="47.464139" lon="7.822287">
        <ele>384.144503</ele>
        <time>2021-11-07T12:01:34.001Z</time>
      </trkpt>
      <trkpt lat="47.464430" lon="7.822777">
        <ele>384.376521</ele>
        <time>2021-11-07T12:01:41.044Z</time>
      </trkpt>
      <trkpt lat="47.464547" lon="7.823498">
        <ele>384.640294</ele>
        <time>2021-11-07T12:01:51.931Z</time>
      </trkpt>
      <trkpt lat="47.464584" lon="7.823833">
        <ele>384.970336</ele>
        <time>2021-11-07T12:01:56.971Z</time>
      </trkpt>
      <trkpt lat="47.464595" lon="7.823957">
        <ele>385.178200</ele>
        <time>2021-11-07T12:01:59.716Z</time>
      </trkpt>
      <trkpt lat="47.464594" lon="7.824922">
        <ele>386.782102</ele>
        <time>2021-11-07T12:02:17.135Z</time>
      </trkpt>
      <trkpt lat="47.464628" lon="7.825179">
        <ele>387.217357</ele>
        <time>2021-11-07T12:02:22.289Z</time>
      </trkpt>
      <trkpt lat="47.464699" lon="7.825356">
        <ele>387.559432</ele>
        <time>2021-11-07T12:02:25.261Z</time>
      </trkpt>
      <trkpt lat="47.464779" lon="7.825573">
        <ele>387.970243</ele>
        <time>2021-11-07T12:02:30.461Z</time>
      </trkpt>
      <trkpt lat="47.464807" lon="7.825786">
        <ele>388.330894</ele>
        <time>2021-11-07T12:02:33.430Z</time>
      </trkpt>
      <trkpt lat="47.464811" lon="7.826774">
        <ele>389.254895</ele>
        <time>2021-11-07T12:02:48.510Z</time>
      </trkpt>
      <trkpt lat="47.464811" lon="7.826880">
        <ele>389.281694</ele>
        <time>2021-11-07T12:02:49.425Z</time>
      </trkpt>
      <trkpt lat="47.464637" lon="7.828262">
        <ele>389.637098</ele>
        <time>2021-11-07T12:03:05.817Z</time>
      </trkpt>
      <trkpt lat="47.464542" lon="7.828898">
        <ele>389.792543</ele>
        <time>2021-11-07T12:03:10.975Z</time>
      </trkpt>
      <trkpt lat="47.464528" lon="7.829016">
        <ele>389.731930</ele>
        <time>2021-11-07T12:03:11.845Z</time>
      </trkpt>
      <trkpt lat="47.464241" lon="7.831019">
        <ele>388.696030</ele>
        <time>2021-11-07T12:03:28.529Z</time>
      </trkpt>
      <trkpt lat="47.464397" lon="7.832586">
        <ele>388.592613</ele>
        <time>2021-11-07T12:03:46.162Z</time>
      </trkpt>
      <trkpt lat="47.464417" lon="7.832774">
        <ele>388.616768</ele>
        <time>2021-11-07T12:03:47.942Z</time>
      </trkpt>
      <trkpt lat="47.464411" lon="7.833016">
        <ele>388.647503</ele>
        <time>2021-11-07T12:03:50.657Z</time>
      </trkpt>
      <trkpt lat="47.464498" lon="7.833566">
        <ele>388.719195</ele>
        <time>2021-11-07T12:03:56.544Z</time>
      </trkpt>
      <trkpt lat="47.464768" lon="7.834327">
        <ele>388.814218</ele>
        <time>2021-11-07T12:04:05.645Z</time>
      </trkpt>
      <trkpt lat="47.464794" lon="7.834565">
        <ele>388.833486</ele>
        <time>2021-11-07T12:04:08.186Z</time>
      </trkpt>
      <trkpt lat="47.464777" lon="7.834644">
        <ele>388.840112</ele>
        <time>2021-11-07T12:04:09.587Z</time>
      </trkpt>
      <trkpt lat="47.464673" lon="7.834652">
        <ele>388.852423</ele>
        <time>2021-11-07T12:04:10.848Z</time>
      </trkpt>
      <trkpt lat="47.464304" lon="7.834739">
        <ele>388.896596</ele>
        <time>2021-11-07T12:04:16.474Z</time>
      </trkpt>
      <trkpt lat="47.464222" lon="7.834781">
        <ele>388.906854</ele>
        <time>2021-11-07T12:04:17.491Z</time>
      </trkpt>
      <trkpt lat="47.464177" lon="7.834863">
        <ele>388.915295</ele>
        <time>2021-11-07T12:04:18.731Z</time>
      </trkpt>
      <trkpt lat="47.464048" lon="7.835487">
        <ele>388.967446</ele>
        <time>2021-11-07T12:04:26.232Z</time>
      </trkpt>
      <trkpt lat="47.464029" lon="7.835540">
        <ele>388.972240</ele>
        <time>2021-11-07T12:04:27.028Z</time>
      </trkpt>
      <trkpt lat="47.464007" lon="7.835605">
        <ele>388.978050</ele>
        <time>2021-11-07T12:04:27.588Z</time>
      </trkpt>
      <trkpt lat="47.463903" lon="7.835720">
        <ele>388.993400</ele>
        <time>2021-11-07T12:04:29.302Z</time>
      </trkpt>
      <trkpt lat="47.463847" lon="7.835742">
        <ele>389.000250</ele>
        <time>2021-11-07T12:04:30.373Z</time>
      </trkpt>
      <trkpt lat="47.463772" lon="7.835747">
        <ele>389.028789</ele>
        <time>2021-11-07T12:04:31.721Z</time>
      </trkpt>
      <trkpt lat="47.463575" lon="7.835732">
        <ele>389.126338</ele>
        <time>2021-11-07T12:04:34.343Z</time>
      </trkpt>
      <trkpt lat="47.463479" lon="7.835717">
        <ele>389.174076</ele>
        <time>2021-11-07T12:04:35.895Z</time>
      </trkpt>
      <trkpt lat="47.463331" lon="7.835778">
        <ele>389.250053</ele>
        <time>2021-11-07T12:04:38.317Z</time>
      </trkpt>
      <trkpt lat="47.463002" lon="7.835961">
        <ele>389.423873</ele>
        <time>2021-11-07T12:04:43.325Z</time>
      </trkpt>
      <trkpt lat="47.462666" lon="7.836201">
        <ele>389.608390</ele>
        <time>2021-11-07T12:04:49.352Z</time>
      </trkpt>
      <trkpt lat="47.462666" lon="7.836201">
        <ele>389.608390</ele>
        <time>2021-11-07T12:04:49.353Z</time>
      </trkpt>
      <trkpt lat="47.462700" lon="7.836337">
        <ele>389.656868</ele>
        <time>2021-11-07T12:04:51.221Z</time>
      </trkpt>
      <trkpt lat="47.462730" lon="7.836472">
        <ele>389.704378</ele>
        <time>2021-11-07T12:04:52.549Z</time>
      </trkpt>
      <trkpt lat="47.462748" lon="7.836556">
        <ele>389.733839</ele>
        <time>2021-11-07T12:04:53.337Z</time>
      </trkpt>
      <trkpt lat="47.462851" lon="7.837404">
        <ele>390.199607</ele>
        <time>2021-11-07T12:05:06.049Z</time>
      </trkpt>
      <trkpt lat="47.462856" lon="7.837506">
        <ele>390.280727</ele>
        <time>2021-11-07T12:05:08.031Z</time>
      </trkpt>
      <trkpt lat="47.462865" lon="7.837711">
        <ele>390.443679</ele>
        <time>2021-11-07T12:05:10.559Z</time>
      </trkpt>
      <trkpt lat="47.462869" lon="7.837866">
        <ele>390.566716</ele>
        <time>2021-11-07T12:05:12.768Z</time>
      </trkpt>
      <trkpt lat="47.462871" lon="7.837954">
        <ele>390.636558</ele>
        <time>2021-11-07T12:05:14.467Z</time>
      </trkpt>
      <trkpt lat="47.462873" lon="7.838016">
        <ele>390.685794</ele>
        <time>2021-11-07T12:05:15.585Z</time>
      </trkpt>
      <trkpt lat="47.462883" lon="7.838488">
        <ele>391.060374</ele>
        <time>2021-11-07T12:05:21.996Z</time>
      </trkpt>
      <trkpt lat="47.462936" lon="7.838934">
        <ele>391.419571</ele>
        <time>2021-11-07T12:05:27.338Z</time>
      </trkpt>
      <trkpt lat="47.462967" lon="7.839047">
        <ele>391.516303</ele>
        <time>2021-11-07T12:05:29.035Z</time>
      </trkpt>
      <trkpt lat="47.462982" lon="7.839106">
        <ele>391.566302</ele>
        <time>2021-11-07T12:05:29.974Z</time>
      </trkpt>
      <trkpt lat="47.463043" lon="7.839292">
        <ele>391.730282</ele>
        <time>2021-11-07T12:05:31.790Z</time>
      </trkpt>
      <trkpt lat="47.463133" lon="7.839561">
        <ele>391.968355</ele>
        <time>2021-11-07T12:05:35.696Z</time>
      </trkpt>
      <trkpt lat="47.463287" lon="7.840028">
        <ele>391.991127</ele>
        <time>2021-11-07T12:05:41.731Z</time>
      </trkpt>
      <trkpt lat="47.463588" lon="7.840904">
        <ele>391.967222</ele>
        <time>2021-11-07T12:05:53.026Z</time>
      </trkpt>
      <trkpt lat="47.463616" lon="7.840992">
        <ele>391.964856</ele>
        <time>2021-11-07T12:05:54.104Z</time>
      </trkpt>
      <trkpt lat="47.463685" lon="7.841203">
        <ele>391.959154</ele>
        <time>2021-11-07T12:05:56.047Z</time>
      </trkpt>
      <trkpt lat="47.463874" lon="7.841863">
        <ele>391.941717</ele>
        <time>2021-11-07T12:06:02.335Z</time>
      </trkpt>
      <trkpt lat="47.463922" lon="7.842123">
        <ele>391.927334</ele>
        <time>2021-11-07T12:06:04.319Z</time>
      </trkpt>
      <trkpt lat="47.463971" lon="7.842355">
        <ele>391.905077</ele>
        <time>2021-11-07T12:06:06.883Z</time>
      </trkpt>
      <trkpt lat="47.464053" lon="7.842690">
        <ele>391.872452</ele>
        <time>2021-11-07T12:06:09.683Z</time>
      </trkpt>
      <trkpt lat="47.464075" lon="7.842774">
        <ele>391.864202</ele>
        <time>2021-11-07T12:06:10.881Z</time>
      </trkpt>
      <trkpt lat="47.464165" lon="7.843130">
        <ele>391.829398</ele>
        <time>2021-11-07T12:06:14.006Z</time>
      </trkpt>
      <trkpt lat="47.464176" lon="7.843178">
        <ele>391.824757</ele>
        <time>2021-11-07T12:06:14.491Z</time>
      </trkpt>
      <trkpt lat="47.464234" lon="7.843434">
        <ele>391.800034</ele>
        <time>2021-11-07T12:06:17.555Z</time>
      </trkpt>
      <trkpt lat="47.464354" lon="7.843960">
        <ele>391.749199</ele>
        <time>2021-11-07T12:06:23.572Z</time>
      </trkpt>
      <trkpt lat="47.464386" lon="7.844088">
        <ele>391.736702</ele>
        <time>2021-11-07T12:06:24.914Z</time>
      </trkpt>
      <trkpt lat="47.464433" lon="7.844273">
        <ele>391.718605</ele>
        <time>2021-11-07T12:06:27.398Z</time>
      </trkpt>
      <trkpt lat="47.464585" lon="7.844988">
        <ele>391.987658</ele>
        <time>2021-11-07T12:06:35.911Z</time>
      </trkpt>
      <trkpt lat="47.464737" lon="7.846119">
        <ele>392.685269</ele>
        <time>2021-11-07T12:06:50.020Z</time>
      </trkpt>
      <trkpt lat="47.464771" lon="7.847028">
        <ele>393.236028</ele>
        <time>2021-11-07T12:07:02.130Z</time>
      </trkpt>
      <trkpt lat="47.464784" lon="7.847333">
        <ele>393.477470</ele>
        <time>2021-11-07T12:07:06.110Z</time>
      </trkpt>
      <trkpt lat="47.464820" lon="7.847644">
        <ele>393.760634</ele>
        <time>2021-11-07T12:07:10.381Z</time>
      </trkpt>
      <trkpt lat="47.464850" lon="7.847870">
        <ele>393.967327</ele>
        <time>2021-11-07T12:07:13.298Z</time>
      </trkpt>
      <trkpt lat="47.464909" lon="7.848219">
        <ele>394.290175</ele>
        <time>2021-11-07T12:07:18.364Z</time>
      </trkpt>
      <trkpt lat="47.464952" lon="7.848443">
        <ele>394.499147</ele>
        <time>2021-11-07T12:07:21.552Z</time>
      </trkpt>
      <trkpt lat="47.465152" lon="7.849351">
        <ele>395.356173</ele>
        <time>2021-11-07T12:07:34.811Z</time>
      </trkpt>
      <trkpt lat="47.465348" lon="7.849875">
        <ele>395.870075</ele>
        <time>2021-11-07T12:07:43.037Z</time>
      </trkpt>
      <trkpt lat="47.465558" lon="7.850405">
        <ele>396.357172</ele>
        <time>2021-11-07T12:07:51.337Z</time>
      </trkpt>
      <trkpt lat="47.465620" lon="7.850585">
        <ele>396.517351</ele>
        <time>2021-11-07T12:07:53.940Z</time>
      </trkpt>
      <trkpt lat="47.465714" lon="7.850917">
        <ele>396.802747</ele>
        <time>2021-11-07T12:07:58.580Z</time>
      </trkpt>
      <trkpt lat="47.465829" lon="7.851383">
        <ele>397.196084</ele>
        <time>2021-11-07T12:08:04.942Z</time>
      </trkpt>
      <trkpt lat="47.465804" lon="7.851399">
        <ele>397.228033</ele>
        <time>2021-11-07T12:08:05.497Z</time>
      </trkpt>
      <trkpt lat="47.465765" lon="7.851501">
        <ele>397.320947</ele>
        <time>2021-11-07T12:08:06.977Z</time>
      </trkpt>
      <trkpt lat="47.465770" lon="7.851542">
        <ele>397.353981</ele>
        <time>2021-11-07T12:08:07.528Z</time>
      </trkpt>
      <trkpt lat="47.465781" lon="7.851575">
        <ele>397.383154</ele>
        <time>2021-11-07T12:08:08.009Z</time>
      </trkpt>
      <trkpt lat="47.465821" lon="7.851619">
        <ele>397.441619</ele>
        <time>2021-11-07T12:08:08.916Z</time>
      </trkpt>
      <trkpt lat="47.465846" lon="7.851625">
        <ele>397.471324</ele>
        <time>2021-11-07T12:08:09.396Z</time>
      </trkpt>
      <trkpt lat="47.465871" lon="7.851620">
        <ele>397.500912</ele>
        <time>2021-11-07T12:08:09.848Z</time>
      </trkpt>
      <trkpt lat="47.465906" lon="7.851776">
        <ele>397.631237</ele>
        <time>2021-11-07T12:08:12.073Z</time>
      </trkpt>
      <trkpt lat="47.466256" lon="7.853287">
        <ele>399.083580</ele>
        <time>2021-11-07T12:08:33.228Z</time>
      </trkpt>
      <trkpt lat="47.466331" lon="7.853936">
        <ele>399.694138</ele>
        <time>2021-11-07T12:08:42.754Z</time>
      </trkpt>
      <trkpt lat="47.466338" lon="7.854554">
        <ele>400.267299</ele>
        <time>2021-11-07T12:08:51.322Z</time>
      </trkpt>
      <trkpt lat="47.466332" lon="7.854775">
        <ele>400.510917</ele>
        <time>2021-11-07T12:08:54.498Z</time>
      </trkpt>
      <trkpt lat="47.466324" lon="7.855062">
        <ele>400.827568</ele>
        <time>2021-11-07T12:08:58.762Z</time>
      </trkpt>
      <trkpt lat="47.466298" lon="7.855895">
        <ele>401.746828</ele>
        <time>2021-11-07T12:09:10.941Z</time>
      </trkpt>
      <trkpt lat="47.466295" lon="7.856234">
        <ele>402.120567</ele>
        <time>2021-11-07T12:09:16.175Z</time>
      </trkpt>
      <trkpt lat="47.466298" lon="7.856354">
        <ele>402.252943</ele>
        <time>2021-11-07T12:09:17.852Z</time>
      </trkpt>
      <trkpt lat="47.466271" lon="7.856363">
        <ele>402.298075</ele>
        <time>2021-11-07T12:09:18.454Z</time>
      </trkpt>
      <trkpt lat="47.466237" lon="7.856421">
        <ele>402.382704</ele>
        <time>2021-11-07T12:09:19.490Z</time>
      </trkpt>
      <trkpt lat="47.466235" lon="7.856461">
        <ele>402.426919</ele>
        <time>2021-11-07T12:09:20.007Z</time>
      </trkpt>
      <trkpt lat="47.466243" lon="7.856497">
        <ele>402.468694</ele>
        <time>2021-11-07T12:09:20.650Z</time>
      </trkpt>
      <trkpt lat="47.466284" lon="7.856540">
        <ele>402.550651</ele>
        <time>2021-11-07T12:09:21.803Z</time>
      </trkpt>
      <trkpt lat="47.466310" lon="7.856541">
        <ele>402.593063</ele>
        <time>2021-11-07T12:09:22.346Z</time>
      </trkpt>
      <trkpt lat="47.466322" lon="7.856655">
        <ele>402.720249</ele>
        <time>2021-11-07T12:09:24.120Z</time>
      </trkpt>
      <trkpt lat="47.466344" lon="7.856945">
        <ele>403.041945</ele>
        <time>2021-11-07T12:09:27.895Z</time>
      </trkpt>
      <trkpt lat="47.466347" lon="7.856973">
        <ele>403.073197</ele>
        <time>2021-11-07T12:09:28.563Z</time>
      </trkpt>
      <trkpt lat="47.466518" lon="7.858022">
        <ele>403.917555</ele>
        <time>2021-11-07T12:09:43.166Z</time>
      </trkpt>
      <trkpt lat="47.466576" lon="7.858236">
        <ele>404.089055</ele>
        <time>2021-11-07T12:09:46.088Z</time>
      </trkpt>
      <trkpt lat="47.466673" lon="7.858620">
        <ele>404.393981</ele>
        <time>2021-11-07T12:09:52.699Z</time>
      </trkpt>
      <trkpt lat="47.466824" lon="7.859137">
        <ele>404.812907</ele>
        <time>2021-11-07T12:10:01.997Z</time>
      </trkpt>
      <trkpt lat="47.466922" lon="7.859398">
        <ele>405.034986</ele>
        <time>2021-11-07T12:10:06.530Z</time>
      </trkpt>
      <trkpt lat="47.467047" lon="7.859682">
        <ele>405.277014</ele>
        <time>2021-11-07T12:10:12.127Z</time>
      </trkpt>
      <trkpt lat="47.467266" lon="7.860107">
        <ele>405.637014</ele>
        <time>2021-11-07T12:10:20.982Z</time>
      </trkpt>
      <trkpt lat="47.467743" lon="7.860947">
        <ele>406.376044</ele>
        <time>2021-11-07T12:10:38.404Z</time>
      </trkpt>
      <trkpt lat="47.467944" lon="7.861300">
        <ele>406.686961</ele>
        <time>2021-11-07T12:10:45.705Z</time>
      </trkpt>
      <trkpt lat="47.468224" lon="7.861805">
        <ele>407.227302</ele>
        <time>2021-11-07T12:10:57.012Z</time>
      </trkpt>
      <trkpt lat="47.468543" lon="7.862357">
        <ele>408.035208</ele>
        <time>2021-11-07T12:11:09.721Z</time>
      </trkpt>
      <trkpt lat="47.468825" lon="7.862900">
        <ele>408.796974</ele>
        <time>2021-11-07T12:11:22.438Z</time>
      </trkpt>
      <trkpt lat="47.468859" lon="7.862978">
        <ele>408.900223</ele>
        <time>2021-11-07T12:11:24.247Z</time>
      </trkpt>
      <trkpt lat="47.468943" lon="7.863195">
        <ele>409.178409</ele>
        <time>2021-11-07T12:11:28.749Z</time>
      </trkpt>
      <trkpt lat="47.468986" lon="7.863323">
        <ele>409.337421</ele>
        <time>2021-11-07T12:11:31.417Z</time>
      </trkpt>
      <trkpt lat="47.469011" lon="7.863405">
        <ele>409.437492</ele>
        <time>2021-11-07T12:11:33.554Z</time>
      </trkpt>
      <trkpt lat="47.469305" lon="7.864692">
        <ele>410.912812</ele>
        <time>2021-11-07T12:11:58.708Z</time>
      </trkpt>
      <trkpt lat="47.469629" lon="7.865918">
        <ele>412.325361</ele>
        <time>2021-11-07T12:12:22.722Z</time>
      </trkpt>
      <trkpt lat="47.469710" lon="7.866208">
        <ele>412.662068</ele>
        <time>2021-11-07T12:12:27.702Z</time>
      </trkpt>
      <trkpt lat="47.469764" lon="7.866452">
        <ele>412.856724</ele>
        <time>2021-11-07T12:12:32.003Z</time>
      </trkpt>
      <trkpt lat="47.469808" lon="7.866690">
        <ele>412.978252</ele>
        <time>2021-11-07T12:12:35.858Z</time>
      </trkpt>
      <trkpt lat="47.469915" lon="7.867494">
        <ele>413.381849</ele>
        <time>2021-11-07T12:12:49.022Z</time>
      </trkpt>
      <trkpt lat="47.470127" lon="7.868484">
        <ele>413.893336</ele>
        <time>2021-11-07T12:13:04.418Z</time>
      </trkpt>
      <trkpt lat="47.470234" lon="7.868884">
        <ele>414.109469</ele>
        <time>2021-11-07T12:13:10.844Z</time>
      </trkpt>
      <trkpt lat="47.470309" lon="7.869201">
        <ele>414.382354</ele>
        <time>2021-11-07T12:13:16.214Z</time>
      </trkpt>
      <trkpt lat="47.470378" lon="7.869626">
        <ele>414.737490</ele>
        <time>2021-11-07T12:13:22.982Z</time>
      </trkpt>
      <trkpt lat="47.470397" lon="7.870147">
        <ele>415.161421</ele>
        <time>2021-11-07T12:13:31.715Z</time>
      </trkpt>
      <trkpt lat="47.470379" lon="7.870338">
        <ele>415.318111</ele>
        <time>2021-11-07T12:13:35.262Z</time>
      </trkpt>
      <trkpt lat="47.470350" lon="7.870570">
        <ele>415.509808</ele>
        <time>2021-11-07T12:13:38.181Z</time>
      </trkpt>
      <trkpt lat="47.470333" lon="7.870669">
        <ele>415.592801</ele>
        <time>2021-11-07T12:13:39.650Z</time>
      </trkpt>
      <trkpt lat="47.470316" lon="7.870753">
        <ele>415.664045</ele>
        <time>2021-11-07T12:13:41.160Z</time>
      </trkpt>
      <trkpt lat="47.470245" lon="7.871088">
        <ele>415.949300</ele>
        <time>2021-11-07T12:13:45.675Z</time>
      </trkpt>
      <trkpt lat="47.470217" lon="7.871214">
        <ele>416.057067</ele>
        <time>2021-11-07T12:13:47.704Z</time>
      </trkpt>
      <trkpt lat="47.470156" lon="7.871491">
        <ele>416.310346</ele>
        <time>2021-11-07T12:13:52.167Z</time>
      </trkpt>
      <trkpt lat="47.469969" lon="7.872276">
        <ele>417.324452</ele>
        <time>2021-11-07T12:14:04.523Z</time>
      </trkpt>
      <trkpt lat="47.469710" lon="7.873249">
        <ele>418.598577</ele>
        <time>2021-11-07T12:14:19.771Z</time>
      </trkpt>
      <trkpt lat="47.469682" lon="7.873326">
        <ele>418.705109</ele>
        <time>2021-11-07T12:14:21.548Z</time>
      </trkpt>
      <trkpt lat="47.469626" lon="7.873477">
        <ele>418.914960</ele>
        <time>2021-11-07T12:14:23.986Z</time>
      </trkpt>
      <trkpt lat="47.469489" lon="7.873809">
        <ele>419.388892</ele>
        <time>2021-11-07T12:14:30.015Z</time>
      </trkpt>
      <trkpt lat="47.469422" lon="7.873965">
        <ele>419.647498</ele>
        <time>2021-11-07T12:14:32.617Z</time>
      </trkpt>
      <trkpt lat="47.469224" lon="7.874328">
        <ele>420.386091</ele>
        <time>2021-11-07T12:14:40.036Z</time>
      </trkpt>
      <trkpt lat="47.469173" lon="7.874432">
        <ele>420.589543</ele>
        <time>2021-11-07T12:14:41.643Z</time>
      </trkpt>
      <trkpt lat="47.469136" lon="7.874516">
        <ele>420.748302</ele>
        <time>2021-11-07T12:14:43.045Z</time>
      </trkpt>
      <trkpt lat="47.469097" lon="7.874606">
        <ele>420.917583</ele>
        <time>2021-11-07T12:14:44.774Z</time>
      </trkpt>
      <trkpt lat="47.469068" lon="7.874689">
        <ele>421.065531</ele>
        <time>2021-11-07T12:14:46.654Z</time>
      </trkpt>
      <trkpt lat="47.469050" lon="7.874738">
        <ele>421.153838</ele>
        <time>2021-11-07T12:14:47.372Z</time>
      </trkpt>
      <trkpt lat="47.468989" lon="7.874967">
        <ele>421.543596</ele>
        <time>2021-11-07T12:14:50.608Z</time>
      </trkpt>
      <trkpt lat="47.468925" lon="7.875205">
        <ele>421.949191</ele>
        <time>2021-11-07T12:14:55.183Z</time>
      </trkpt>
      <trkpt lat="47.468806" lon="7.875696">
        <ele>422.775148</ele>
        <time>2021-11-07T12:15:04.120Z</time>
      </trkpt>
      <trkpt lat="47.468698" lon="7.876140">
        <ele>423.522353</ele>
        <time>2021-11-07T12:15:12.348Z</time>
      </trkpt>
      <trkpt lat="47.468740" lon="7.876159">
        <ele>423.625234</ele>
        <time>2021-11-07T12:15:13.642Z</time>
      </trkpt>
      <trkpt lat="47.469265" lon="7.876688">
        <ele>427.248678</ele>
        <time>2021-11-07T12:15:30.641Z</time>
      </trkpt>
      <trkpt lat="47.469354" lon="7.876797">
        <ele>427.932953</ele>
        <time>2021-11-07T12:15:34.463Z</time>
      </trkpt>
      <trkpt lat="47.469384" lon="7.876836">
        <ele>428.169476</ele>
        <time>2021-11-07T12:15:36.280Z</time>
      </trkpt>
      <trkpt lat="47.469413" lon="7.876875">
        <ele>428.401582</ele>
        <time>2021-11-07T12:15:36.730Z</time>
      </trkpt>
      <trkpt lat="47.469475" lon="7.876966">
        <ele>428.918825</ele>
        <time>2021-11-07T12:15:39.219Z</time>
      </trkpt>
      <trkpt lat="47.469512" lon="7.877020">
        <ele>429.226639</ele>
        <time>2021-11-07T12:15:40.857Z</time>
      </trkpt>
      <trkpt lat="47.469549" lon="7.877073">
        <ele>429.531655</ele>
        <time>2021-11-07T12:15:43.475Z</time>
      </trkpt>
      <trkpt lat="47.470106" lon="7.878102">
        <ele>435.392005</ele>
        <time>2021-11-07T12:16:24.586Z</time>
      </trkpt>
      <trkpt lat="47.470277" lon="7.878469">
        <ele>439.534296</ele>
        <time>2021-11-07T12:16:41.845Z</time>
      </trkpt>
      <trkpt lat="47.470372" lon="7.878664">
        <ele>441.768043</ele>
        <time>2021-11-07T12:16:52.735Z</time>
      </trkpt>
      <trkpt lat="47.470496" lon="7.878920">
        <ele>444.694788</ele>
        <time>2021-11-07T12:17:08.741Z</time>
      </trkpt>
      <trkpt lat="47.470626" lon="7.879175">
        <ele>447.662905</ele>
        <time>2021-11-07T12:17:24.280Z</time>
      </trkpt>
      <trkpt lat="47.470641" lon="7.879203">
        <ele>447.994916</ele>
        <time>2021-11-07T12:17:26.837Z</time>
      </trkpt>
      <trkpt lat="47.470688" lon="7.879298">
        <ele>449.088948</ele>
        <time>2021-11-07T12:17:33.166Z</time>
      </trkpt>
      <trkpt lat="47.471056" lon="7.880271">
        <ele>459.390236</ele>
        <time>2021-11-07T12:18:32.463Z</time>
      </trkpt>
      <trkpt lat="47.471122" lon="7.880528">
        <ele>461.513851</ele>
        <time>2021-11-07T12:18:48.254Z</time>
      </trkpt>
      <trkpt lat="47.471143" lon="7.880602">
        <ele>462.133787</ele>
        <time>2021-11-07T12:18:52.233Z</time>
      </trkpt>
      <trkpt lat="47.471173" lon="7.880721">
        <ele>463.114838</ele>
        <time>2021-11-07T12:18:58.750Z</time>
      </trkpt>
      <trkpt lat="47.471376" lon="7.881235">
        <ele>467.713181</ele>
        <time>2021-11-07T12:19:26.402Z</time>
      </trkpt>
      <trkpt lat="47.471451" lon="7.881438">
        <ele>469.500162</ele>
        <time>2021-11-07T12:19:39.175Z</time>
      </trkpt>
      <trkpt lat="47.471472" lon="7.881494">
        <ele>469.994832</ele>
        <time>2021-11-07T12:19:41.592Z</time>
      </trkpt>
      <trkpt lat="47.471600" lon="7.881776">
        <ele>472.618630</ele>
        <time>2021-11-07T12:19:52.423Z</time>
      </trkpt>
      <trkpt lat="47.471932" lon="7.882355">
        <ele>478.483403</ele>
        <time>2021-11-07T12:20:21.491Z</time>
      </trkpt>
      <trkpt lat="47.472670" lon="7.883027">
        <ele>480.628468</ele>
        <time>2021-11-07T12:20:44.049Z</time>
      </trkpt>
      <trkpt lat="47.473082" lon="7.883408">
        <ele>481.250989</ele>
        <time>2021-11-07T12:20:51.825Z</time>
      </trkpt>
      <trkpt lat="47.473290" lon="7.883592">
        <ele>481.561499</ele>
        <time>2021-11-07T12:20:55.304Z</time>
      </trkpt>
      <trkpt lat="47.474508" lon="7.884402">
        <ele>477.887625</ele>
        <time>2021-11-07T12:21:08.918Z</time>
      </trkpt>
      <trkpt lat="47.474703" lon="7.884534">
        <ele>477.040805</ele>
        <time>2021-11-07T12:21:10.983Z</time>
      </trkpt>
      <trkpt lat="47.474825" lon="7.884590">
        <ele>476.536379</ele>
        <time>2021-11-07T12:21:12.127Z</time>
      </trkpt>
      <trkpt lat="47.475395" lon="7.884643">
        <ele>474.120432</ele>
        <time>2021-11-07T12:21:17.475Z</time>
      </trkpt>
      <trkpt lat="47.475660" lon="7.884681">
        <ele>472.772585</ele>
        <time>2021-11-07T12:21:19.905Z</time>
      </trkpt>
      <trkpt lat="47.475795" lon="7.884698">
        <ele>472.086677</ele>
        <time>2021-11-07T12:21:21.135Z</time>
      </trkpt>
      <trkpt lat="47.476108" lon="7.884690">
        <ele>470.501881</ele>
        <time>2021-11-07T12:21:24.008Z</time>
      </trkpt>
      <trkpt lat="47.477249" lon="7.884423">
        <ele>465.436098</ele>
        <time>2021-11-07T12:21:34.936Z</time>
      </trkpt>
      <trkpt lat="47.478579" lon="7.883777">
        <ele>463.430124</ele>
        <time>2021-11-07T12:21:52.025Z</time>
      </trkpt>
      <trkpt lat="47.478811" lon="7.883733">
        <ele>463.220256</ele>
        <time>2021-11-07T12:21:56.023Z</time>
      </trkpt>
      <trkpt lat="47.479105" lon="7.883776">
        <ele>463.528038</ele>
        <time>2021-11-07T12:22:01.254Z</time>
      </trkpt>
      <trkpt lat="47.479273" lon="7.883853">
        <ele>463.711265</ele>
        <time>2021-11-07T12:22:04.521Z</time>
      </trkpt>
      <trkpt lat="47.479813" lon="7.884128">
        <ele>464.306226</ele>
        <time>2021-11-07T12:22:15.601Z</time>
      </trkpt>
      <trkpt lat="47.480537" lon="7.884477">
        <ele>465.161299</ele>
        <time>2021-11-07T12:22:31.341Z</time>
      </trkpt>
      <trkpt lat="47.480931" lon="7.884489">
        <ele>466.007931</ele>
        <time>2021-11-07T12:22:40.132Z</time>
      </trkpt>
      <trkpt lat="47.481022" lon="7.884472">
        <ele>466.204984</ele>
        <time>2021-11-07T12:22:42.025Z</time>
      </trkpt>
      <trkpt lat="47.481202" lon="7.884417">
        <ele>466.599847</ele>
        <time>2021-11-07T12:22:46.897Z</time>
      </trkpt>
      <trkpt lat="47.481625" lon="7.884355">
        <ele>467.513049</ele>
        <time>2021-11-07T12:22:56.984Z</time>
      </trkpt>
      <trkpt lat="47.482094" lon="7.884439">
        <ele>468.527983</ele>
        <time>2021-11-07T12:23:08.341Z</time>
      </trkpt>
      <trkpt lat="47.482343" lon="7.884501">
        <ele>469.115684</ele>
        <time>2021-11-07T12:23:14.353Z</time>
      </trkpt>
      <trkpt lat="47.482795" lon="7.884621">
        <ele>470.372755</ele>
        <time>2021-11-07T12:23:25.981Z</time>
      </trkpt>
      <trkpt lat="47.483344" lon="7.884768">
        <ele>471.900004</ele>
        <time>2021-11-07T12:23:39.360Z</time>
      </trkpt>
      <trkpt lat="47.483495" lon="7.884861">
        <ele>472.347730</ele>
        <time>2021-11-07T12:23:44.023Z</time>
      </trkpt>
      <trkpt lat="47.483551" lon="7.884901">
        <ele>472.517951</ele>
        <time>2021-11-07T12:23:45.135Z</time>
      </trkpt>
      <trkpt lat="47.483644" lon="7.884992">
        <ele>472.823158</ele>
        <time>2021-11-07T12:23:48.043Z</time>
      </trkpt>
      <trkpt lat="47.484124" lon="7.885514">
        <ele>474.689708</ele>
        <time>2021-11-07T12:24:05.761Z</time>
      </trkpt>
      <trkpt lat="47.484724" lon="7.885990">
        <ele>477.257051</ele>
        <time>2021-11-07T12:24:24.538Z</time>
      </trkpt>
      <trkpt lat="47.484859" lon="7.886144">
        <ele>477.899867</ele>
        <time>2021-11-07T12:24:28.851Z</time>
      </trkpt>
      <trkpt lat="47.484923" lon="7.886213">
        <ele>478.198484</ele>
        <time>2021-11-07T12:24:32.063Z</time>
      </trkpt>
      <trkpt lat="47.485730" lon="7.887323">
        <ele>482.645125</ele>
        <time>2021-11-07T12:25:07.576Z</time>
      </trkpt>
      <trkpt lat="47.485824" lon="7.887463">
        <ele>483.232311</ele>
        <time>2021-11-07T12:25:11.996Z</time>
      </trkpt>
      <trkpt lat="47.485842" lon="7.887493">
        <ele>483.351675</ele>
        <time>2021-11-07T12:25:12.898Z</time>
      </trkpt>
      <trkpt lat="47.485991" lon="7.887744">
        <ele>484.345686</ele>
        <time>2021-11-07T12:25:21.347Z</time>
      </trkpt>
      <trkpt lat="47.486185" lon="7.888073">
        <ele>485.644812</ele>
        <time>2021-11-07T12:25:30.958Z</time>
      </trkpt>
      <trkpt lat="47.486746" lon="7.889218">
        <ele>489.602120</ele>
        <time>2021-11-07T12:26:00.691Z</time>
      </trkpt>
      <trkpt lat="47.486763" lon="7.889251">
        <ele>489.702174</ele>
        <time>2021-11-07T12:26:02.181Z</time>
      </trkpt>
      <trkpt lat="47.486940" lon="7.889619">
        <ele>490.791306</ele>
        <time>2021-11-07T12:26:10.332Z</time>
      </trkpt>
      <trkpt lat="47.487367" lon="7.890321">
        <ele>493.068675</ele>
        <time>2021-11-07T12:26:27.903Z</time>
      </trkpt>
      <trkpt lat="47.487490" lon="7.890449">
        <ele>493.605209</ele>
        <time>2021-11-07T12:26:32.446Z</time>
      </trkpt>
      <trkpt lat="47.487518" lon="7.890485">
        <ele>493.737558</ele>
        <time>2021-11-07T12:26:33.493Z</time>
      </trkpt>
      <trkpt lat="47.487680" lon="7.891282">
        <ele>495.497564</ele>
        <time>2021-11-07T12:26:51.644Z</time>
      </trkpt>
      <trkpt lat="47.488084" lon="7.892534">
        <ele>497.805178</ele>
        <time>2021-11-07T12:27:13.454Z</time>
      </trkpt>
      <trkpt lat="47.488137" lon="7.892763">
        <ele>498.207779</ele>
        <time>2021-11-07T12:27:18.513Z</time>
      </trkpt>
      <trkpt lat="47.488168" lon="7.892899">
        <ele>498.446500</ele>
        <time>2021-11-07T12:27:19.828Z</time>
      </trkpt>
      <trkpt lat="47.488250" lon="7.893055">
        <ele>498.775220</ele>
        <time>2021-11-07T12:27:22.381Z</time>
      </trkpt>
      <trkpt lat="47.488323" lon="7.893133">
        <ele>498.996838</ele>
        <time>2021-11-07T12:27:25.455Z</time>
      </trkpt>
      <trkpt lat="47.488402" lon="7.893037">
        <ele>499.248439</ele>
        <time>2021-11-07T12:27:26.828Z</time>
      </trkpt>
      <trkpt lat="47.488571" lon="7.892671">
        <ele>500.345579</ele>
        <time>2021-11-07T12:27:33.426Z</time>
      </trkpt>
      <trkpt lat="47.488649" lon="7.892618">
        <ele>500.681495</ele>
        <time>2021-11-07T12:27:34.541Z</time>
      </trkpt>
      <trkpt lat="47.488707" lon="7.892577">
        <ele>500.933062</ele>
        <time>2021-11-07T12:27:35.388Z</time>
      </trkpt>
      <trkpt lat="47.488809" lon="7.892200">
        <ele>502.007055</ele>
        <time>2021-11-07T12:27:43.448Z</time>
      </trkpt>
      <trkpt lat="47.488835" lon="7.892066">
        <ele>502.375761</ele>
        <time>2021-11-07T12:27:45.180Z</time>
      </trkpt>
      <trkpt lat="47.488799" lon="7.891910">
        <ele>502.811725</ele>
        <time>2021-11-07T12:27:50.570Z</time>
      </trkpt>
      <trkpt lat="47.488495" lon="7.891186">
        <ele>505.066024</ele>
        <time>2021-11-07T12:28:07.716Z</time>
      </trkpt>
      <trkpt lat="47.488499" lon="7.890970">
        <ele>505.637491</ele>
        <time>2021-11-07T12:28:14.164Z</time>
      </trkpt>
      <trkpt lat="47.488595" lon="7.890769">
        <ele>506.288449</ele>
        <time>2021-11-07T12:28:19.988Z</time>
      </trkpt>
      <trkpt lat="47.488680" lon="7.890697">
        <ele>506.970620</ele>
        <time>2021-11-07T12:28:22.851Z</time>
      </trkpt>
      <trkpt lat="47.488715" lon="7.890673">
        <ele>507.297591</ele>
        <time>2021-11-07T12:28:26.002Z</time>
      </trkpt>
      <trkpt lat="47.488950" lon="7.890650">
        <ele>509.293872</ele>
        <time>2021-11-07T12:28:35.066Z</time>
      </trkpt>
      <trkpt lat="47.489379" lon="7.890627">
        <ele>512.932587</ele>
        <time>2021-11-07T12:28:54.523Z</time>
      </trkpt>
      <trkpt lat="47.489665" lon="7.890612">
        <ele>515.358329</ele>
        <time>2021-11-07T12:29:11.017Z</time>
      </trkpt>
      <trkpt lat="47.490438" lon="7.890555">
        <ele>521.906336</ele>
        <time>2021-11-07T12:29:53.311Z</time>
      </trkpt>
      <trkpt lat="47.490978" lon="7.890353">
        <ele>526.401979</ele>
        <time>2021-11-07T12:30:20.962Z</time>
      </trkpt>
      <trkpt lat="47.491016" lon="7.890331">
        <ele>526.731327</ele>
        <time>2021-11-07T12:30:24.858Z</time>
      </trkpt>
      <trkpt lat="47.491152" lon="7.890269">
        <ele>527.879940</ele>
        <time>2021-11-07T12:30:30.704Z</time>
      </trkpt>
      <trkpt lat="47.491390" lon="7.890064">
        <ele>530.102608</ele>
        <time>2021-11-07T12:30:42.650Z</time>
      </trkpt>
      <trkpt lat="47.491657" lon="7.889588">
        <ele>533.476581</ele>
        <time>2021-11-07T12:30:59.259Z</time>
      </trkpt>
      <trkpt lat="47.491698" lon="7.889463">
        <ele>534.234386</ele>
        <time>2021-11-07T12:31:02.521Z</time>
      </trkpt>
      <trkpt lat="47.491769" lon="7.889166">
        <ele>535.952559</ele>
        <time>2021-11-07T12:31:13.274Z</time>
      </trkpt>
      <trkpt lat="47.491962" lon="7.888038">
        <ele>542.937156</ele>
        <time>2021-11-07T12:31:51.023Z</time>
      </trkpt>
      <trkpt lat="47.492175" lon="7.887289">
        <ele>547.831507</ele>
        <time>2021-11-07T12:32:18.637Z</time>
      </trkpt>
      <trkpt lat="47.492246" lon="7.887099">
        <ele>549.139184</ele>
        <time>2021-11-07T12:32:26.548Z</time>
      </trkpt>
      <trkpt lat="47.492288" lon="7.886983">
        <ele>549.931812</ele>
        <time>2021-11-07T12:32:31.058Z</time>
      </trkpt>
      <trkpt lat="47.492348" lon="7.886838">
        <ele>550.955867</ele>
        <time>2021-11-07T12:32:38.569Z</time>
      </trkpt>
      <trkpt lat="47.492927" lon="7.885817">
        <ele>560.310607</ele>
        <time>2021-11-07T12:33:28.579Z</time>
      </trkpt>
      <trkpt lat="47.493060" lon="7.885635">
        <ele>562.241501</ele>
        <time>2021-11-07T12:33:39.941Z</time>
      </trkpt>
      <trkpt lat="47.493304" lon="7.885334">
        <ele>565.627514</ele>
        <time>2021-11-07T12:34:00.529Z</time>
      </trkpt>
      <trkpt lat="47.493814" lon="7.884597">
        <ele>572.894333</ele>
        <time>2021-11-07T12:34:39.842Z</time>
      </trkpt>
      <trkpt lat="47.494186" lon="7.884344">
        <ele>576.473143</ele>
        <time>2021-11-07T12:35:02.170Z</time>
      </trkpt>
      <trkpt lat="47.494367" lon="7.884261">
        <ele>578.129590</ele>
        <time>2021-11-07T12:35:12.773Z</time>
      </trkpt>
      <trkpt lat="47.494764" lon="7.884042">
        <ele>581.833251</ele>
        <time>2021-11-07T12:35:32.624Z</time>
      </trkpt>
      <trkpt lat="47.495454" lon="7.883705">
        <ele>587.671506</ele>
        <time>2021-11-07T12:36:06.087Z</time>
      </trkpt>
      <trkpt lat="47.496049" lon="7.883820">
        <ele>590.417840</ele>
        <time>2021-11-07T12:36:30.899Z</time>
      </trkpt>
      <trkpt lat="47.496581" lon="7.883536">
        <ele>593.006247</ele>
        <time>2021-11-07T12:36:48.324Z</time>
      </trkpt>
      <trkpt lat="47.496652" lon="7.883465">
        <ele>593.398418</ele>
        <time>2021-11-07T12:36:51.921Z</time>
      </trkpt>
      <trkpt lat="47.496687" lon="7.883397">
        <ele>593.662758</ele>
        <time>2021-11-07T12:36:52.815Z</time>
      </trkpt>
      <trkpt lat="47.496734" lon="7.882969">
        <ele>595.003610</ele>
        <time>2021-11-07T12:37:00.390Z</time>
      </trkpt>
      <trkpt lat="47.496724" lon="7.882743">
        <ele>594.990047</ele>
        <time>2021-11-07T12:37:02.797Z</time>
      </trkpt>
      <trkpt lat="47.496732" lon="7.882629">
        <ele>594.650464</ele>
        <time>2021-11-07T12:37:04.235Z</time>
      </trkpt>
      <trkpt lat="47.496733" lon="7.882493">
        <ele>594.247491</ele>
        <time>2021-11-07T12:37:08.600Z</time>
      </trkpt>
      <trkpt lat="47.496758" lon="7.882064">
        <ele>592.971706</ele>
        <time>2021-11-07T12:37:12.412Z</time>
      </trkpt>
      <trkpt lat="47.496775" lon="7.881742">
        <ele>592.014757</ele>
        <time>2021-11-07T12:37:15.161Z</time>
      </trkpt>
      <trkpt lat="47.496817" lon="7.881208">
        <ele>590.421908</ele>
        <time>2021-11-07T12:37:18.492Z</time>
      </trkpt>
      <trkpt lat="47.496934" lon="7.880335">
        <ele>587.784941</ele>
        <time>2021-11-07T12:37:23.797Z</time>
      </trkpt>
      <trkpt lat="47.497046" lon="7.879652">
        <ele>582.237761</ele>
        <time>2021-11-07T12:37:27.849Z</time>
      </trkpt>
      <trkpt lat="47.497087" lon="7.879380">
        <ele>579.776494</ele>
        <time>2021-11-07T12:37:29.471Z</time>
      </trkpt>
      <trkpt lat="47.497148" lon="7.879174">
        <ele>577.790110</ele>
        <time>2021-11-07T12:37:30.731Z</time>
      </trkpt>
      <trkpt lat="47.497250" lon="7.878931">
        <ele>575.263567</ele>
        <time>2021-11-07T12:37:32.391Z</time>
      </trkpt>
      <trkpt lat="47.497693" lon="7.878386">
        <ele>567.733613</ele>
        <time>2021-11-07T12:37:37.165Z</time>
      </trkpt>
      <trkpt lat="47.498148" lon="7.877525">
        <ele>558.047845</ele>
        <time>2021-11-07T12:37:43.268Z</time>
      </trkpt>
      <trkpt lat="47.498351" lon="7.877306">
        <ele>554.746272</ele>
        <time>2021-11-07T12:37:45.410Z</time>
      </trkpt>
      <trkpt lat="47.498622" lon="7.877161">
        <ele>550.958873</ele>
        <time>2021-11-07T12:37:47.854Z</time>
      </trkpt>
      <trkpt lat="47.498728" lon="7.877133">
        <ele>549.543676</ele>
        <time>2021-11-07T12:37:48.753Z</time>
      </trkpt>
      <trkpt lat="47.498805" lon="7.877120">
        <ele>548.525083</ele>
        <time>2021-11-07T12:37:49.394Z</time>
      </trkpt>
      <trkpt lat="47.499098" lon="7.877132">
        <ele>544.672634</ele>
        <time>2021-11-07T12:37:51.864Z</time>
      </trkpt>
      <trkpt lat="47.499321" lon="7.877227">
        <ele>541.622709</ele>
        <time>2021-11-07T12:37:53.846Z</time>
      </trkpt>
      <trkpt lat="47.500301" lon="7.877860">
        <ele>530.938551</ele>
        <time>2021-11-07T12:38:02.930Z</time>
      </trkpt>
      <trkpt lat="47.500406" lon="7.877881">
        <ele>529.914511</ele>
        <time>2021-11-07T12:38:03.833Z</time>
      </trkpt>
      <trkpt lat="47.500435" lon="7.877886">
        <ele>529.632333</ele>
        <time>2021-11-07T12:38:04.102Z</time>
      </trkpt>
      <trkpt lat="47.500646" lon="7.877870">
        <ele>527.590356</ele>
        <time>2021-11-07T12:38:06.013Z</time>
      </trkpt>
      <trkpt lat="47.500871" lon="7.877817">
        <ele>525.388382</ele>
        <time>2021-11-07T12:38:08.018Z</time>
      </trkpt>
      <trkpt lat="47.501223" lon="7.877550">
        <ele>522.052912</ele>
        <time>2021-11-07T12:38:11.544Z</time>
      </trkpt>
      <trkpt lat="47.502590" lon="7.875352">
        <ele>510.799345</ele>
        <time>2021-11-07T12:38:30.050Z</time>
      </trkpt>
      <trkpt lat="47.502842" lon="7.875099">
        <ele>509.949035</ele>
        <time>2021-11-07T12:38:33.151Z</time>
      </trkpt>
      <trkpt lat="47.502952" lon="7.875026">
        <ele>509.612398</ele>
        <time>2021-11-07T12:38:34.295Z</time>
      </trkpt>
      <trkpt lat="47.503258" lon="7.874914">
        <ele>508.732147</ele>
        <time>2021-11-07T12:38:37.843Z</time>
      </trkpt>
      <trkpt lat="47.503780" lon="7.874762">
        <ele>507.246507</ele>
        <time>2021-11-07T12:38:44.376Z</time>
      </trkpt>
      <trkpt lat="47.504138" lon="7.874810">
        <ele>506.599709</ele>
        <time>2021-11-07T12:38:49.053Z</time>
      </trkpt>
      <trkpt lat="47.504456" lon="7.874954">
        <ele>506.287741</ele>
        <time>2021-11-07T12:38:53.294Z</time>
      </trkpt>
      <trkpt lat="47.504773" lon="7.875081">
        <ele>505.979658</ele>
        <time>2021-11-07T12:38:58.133Z</time>
      </trkpt>
      <trkpt lat="47.505055" lon="7.875184">
        <ele>505.707174</ele>
        <time>2021-11-07T12:39:02.033Z</time>
      </trkpt>
      <trkpt lat="47.505641" lon="7.875432">
        <ele>505.135411</ele>
        <time>2021-11-07T12:39:08.924Z</time>
      </trkpt>
      <trkpt lat="47.506247" lon="7.875668">
        <ele>504.997857</ele>
        <time>2021-11-07T12:39:15.936Z</time>
      </trkpt>
      <trkpt lat="47.506751" lon="7.875886">
        <ele>504.911951</ele>
        <time>2021-11-07T12:39:22.347Z</time>
      </trkpt>
      <trkpt lat="47.506931" lon="7.875910">
        <ele>504.882382</ele>
        <time>2021-11-07T12:39:24.657Z</time>
      </trkpt>
      <trkpt lat="47.507005" lon="7.875873">
        <ele>504.869603</ele>
        <time>2021-11-07T12:39:26.268Z</time>
      </trkpt>
      <trkpt lat="47.507115" lon="7.875816">
        <ele>504.850535</ele>
        <time>2021-11-07T12:39:27.930Z</time>
      </trkpt>
      <trkpt lat="47.507180" lon="7.875746">
        <ele>504.837385</ele>
        <time>2021-11-07T12:39:28.929Z</time>
      </trkpt>
      <trkpt lat="47.507290" lon="7.875874">
        <ele>504.814493</ele>
        <time>2021-11-07T12:39:32.427Z</time>
      </trkpt>
      <trkpt lat="47.507401" lon="7.875979">
        <ele>504.989334</ele>
        <time>2021-11-07T12:39:35.136Z</time>
      </trkpt>
      <trkpt lat="47.508622" lon="7.876337">
        <ele>511.727588</ele>
        <time>2021-11-07T12:40:17.945Z</time>
      </trkpt>
      <trkpt lat="47.509482" lon="7.876733">
        <ele>517.882541</ele>
        <time>2021-11-07T12:41:00.991Z</time>
      </trkpt>
      <trkpt lat="47.510007" lon="7.876761">
        <ele>522.486231</ele>
        <time>2021-11-07T12:41:27.052Z</time>
      </trkpt>
      <trkpt lat="47.510435" lon="7.876481">
        <ele>526.586772</ele>
        <time>2021-11-07T12:41:51.020Z</time>
      </trkpt>
      <trkpt lat="47.511190" lon="7.876570">
        <ele>533.337245</ele>
        <time>2021-11-07T12:42:30.370Z</time>
      </trkpt>
      <trkpt lat="47.511667" lon="7.876649">
        <ele>537.706209</ele>
        <time>2021-11-07T12:42:56.492Z</time>
      </trkpt>
      <trkpt lat="47.512177" lon="7.876837">
        <ele>542.490204</ele>
        <time>2021-11-07T12:43:25.261Z</time>
      </trkpt>
      <trkpt lat="47.512473" lon="7.876960">
        <ele>545.288649</ele>
        <time>2021-11-07T12:43:39.247Z</time>
      </trkpt>
      <trkpt lat="47.512770" lon="7.877192">
        <ele>547.950229</ele>
        <time>2021-11-07T12:43:54.315Z</time>
      </trkpt>
      <trkpt lat="47.512833" lon="7.877226">
        <ele>548.416687</ele>
        <time>2021-11-07T12:43:59.207Z</time>
      </trkpt>
      <trkpt lat="47.512876" lon="7.877225">
        <ele>548.715848</ele>
        <time>2021-11-07T12:44:00.807Z</time>
      </trkpt>
      <trkpt lat="47.512985" lon="7.877163">
        <ele>549.528124</ele>
        <time>2021-11-07T12:44:05.217Z</time>
      </trkpt>
      <trkpt lat="47.513033" lon="7.877031">
        <ele>550.232497</ele>
        <time>2021-11-07T12:44:09.040Z</time>
      </trkpt>
      <trkpt lat="47.512964" lon="7.876476">
        <ele>552.883966</ele>
        <time>2021-11-07T12:44:24.963Z</time>
      </trkpt>
      <trkpt lat="47.513052" lon="7.876372">
        <ele>553.667235</ele>
        <time>2021-11-07T12:44:33.000Z</time>
      </trkpt>
      <trkpt lat="47.513178" lon="7.876374">
        <ele>554.543788</ele>
        <time>2021-11-07T12:44:37.271Z</time>
      </trkpt>
      <trkpt lat="47.513515" lon="7.876980">
        <ele>558.231962</ele>
        <time>2021-11-07T12:44:58.792Z</time>
      </trkpt>
      <trkpt lat="47.513666" lon="7.877818">
        <ele>560.797552</ele>
        <time>2021-11-07T12:45:19.074Z</time>
      </trkpt>
      <trkpt lat="47.513745" lon="7.877974">
        <ele>561.271199</ele>
        <time>2021-11-07T12:45:22.375Z</time>
      </trkpt>
      <trkpt lat="47.513785" lon="7.878029">
        <ele>561.467536</ele>
        <time>2021-11-07T12:45:25.675Z</time>
      </trkpt>
      <trkpt lat="47.513871" lon="7.877995">
        <ele>561.787683</ele>
        <time>2021-11-07T12:45:28.093Z</time>
      </trkpt>
      <trkpt lat="47.514968" lon="7.877332">
        <ele>565.642288</ele>
        <time>2021-11-07T12:45:59.228Z</time>
      </trkpt>
      <trkpt lat="47.515420" lon="7.877272">
        <ele>565.607525</ele>
        <time>2021-11-07T12:46:08.200Z</time>
      </trkpt>
      <trkpt lat="47.515681" lon="7.877302">
        <ele>565.587472</ele>
        <time>2021-11-07T12:46:11.490Z</time>
      </trkpt>
      <trkpt lat="47.515760" lon="7.877292">
        <ele>565.581398</ele>
        <time>2021-11-07T12:46:12.698Z</time>
      </trkpt>
      <trkpt lat="47.515851" lon="7.877349">
        <ele>565.573830</ele>
        <time>2021-11-07T12:46:13.792Z</time>
      </trkpt>
      <trkpt lat="47.516159" lon="7.877842">
        <ele>565.539085</ele>
        <time>2021-11-07T12:46:19.371Z</time>
      </trkpt>
      <trkpt lat="47.516224" lon="7.878098">
        <ele>565.524936</ele>
        <time>2021-11-07T12:46:21.705Z</time>
      </trkpt>
      <trkpt lat="47.516272" lon="7.878498">
        <ele>565.254090</ele>
        <time>2021-11-07T12:46:24.855Z</time>
      </trkpt>
      <trkpt lat="47.516359" lon="7.879191">
        <ele>564.214071</ele>
        <time>2021-11-07T12:46:30.102Z</time>
      </trkpt>
      <trkpt lat="47.516805" lon="7.880404">
        <ele>562.176290</ele>
        <time>2021-11-07T12:46:39.979Z</time>
      </trkpt>
      <trkpt lat="47.516823" lon="7.880604">
        <ele>561.878589</ele>
        <time>2021-11-07T12:46:41.348Z</time>
      </trkpt>
      <trkpt lat="47.516766" lon="7.880804">
        <ele>561.558326</ele>
        <time>2021-11-07T12:46:43.008Z</time>
      </trkpt>
      <trkpt lat="47.516652" lon="7.881028">
        <ele>561.144937</ele>
        <time>2021-11-07T12:46:44.960Z</time>
      </trkpt>
      <trkpt lat="47.516404" lon="7.881391">
        <ele>560.383915</ele>
        <time>2021-11-07T12:46:48.701Z</time>
      </trkpt>
      <trkpt lat="47.515875" lon="7.882005">
        <ele>558.917049</ele>
        <time>2021-11-07T12:46:55.948Z</time>
      </trkpt>
      <trkpt lat="47.515828" lon="7.882080">
        <ele>558.766252</ele>
        <time>2021-11-07T12:46:56.609Z</time>
      </trkpt>
      <trkpt lat="47.515787" lon="7.882219">
        <ele>558.542694</ele>
        <time>2021-11-07T12:46:57.822Z</time>
      </trkpt>
      <trkpt lat="47.515709" lon="7.882737">
        <ele>557.760468</ele>
        <time>2021-11-07T12:47:01.720Z</time>
      </trkpt>
      <trkpt lat="47.515667" lon="7.882940">
        <ele>557.522300</ele>
        <time>2021-11-07T12:47:03.490Z</time>
      </trkpt>
      <trkpt lat="47.515760" lon="7.883075">
        <ele>557.338853</ele>
        <time>2021-11-07T12:47:04.864Z</time>
      </trkpt>
      <trkpt lat="47.516014" lon="7.883366">
        <ele>556.886487</ele>
        <time>2021-11-07T12:47:08.856Z</time>
      </trkpt>
      <trkpt lat="47.516297" lon="7.883567">
        <ele>556.444381</ele>
        <time>2021-11-07T12:47:12.849Z</time>
      </trkpt>
      <trkpt lat="47.516994" lon="7.883845">
        <ele>555.427631</ele>
        <time>2021-11-07T12:47:21.625Z</time>
      </trkpt>
      <trkpt lat="47.517135" lon="7.884043">
        <ele>555.153913</ele>
        <time>2021-11-07T12:47:23.786Z</time>
      </trkpt>
      <trkpt lat="47.517354" lon="7.884601">
        <ele>552.950130</ele>
        <time>2021-11-07T12:47:28.490Z</time>
      </trkpt>
      <trkpt lat="47.517352" lon="7.884976">
        <ele>551.623792</ele>
        <time>2021-11-07T12:47:31.083Z</time>
      </trkpt>
      <trkpt lat="47.517236" lon="7.885488">
        <ele>549.713775</ele>
        <time>2021-11-07T12:47:34.588Z</time>
      </trkpt>
      <trkpt lat="47.517256" lon="7.885726">
        <ele>548.865526</ele>
        <time>2021-11-07T12:47:36.087Z</time>
      </trkpt>
      <trkpt lat="47.517782" lon="7.886773">
        <ele>542.107802</ele>
        <time>2021-11-07T12:47:43.836Z</time>
      </trkpt>
      <trkpt lat="47.518067" lon="7.887631">
        <ele>533.747701</ele>
        <time>2021-11-07T12:47:49.297Z</time>
      </trkpt>
      <trkpt lat="47.518414" lon="7.887950">
        <ele>528.459931</ele>
        <time>2021-11-07T12:47:52.702Z</time>
      </trkpt>
      <trkpt lat="47.518461" lon="7.888070">
        <ele>527.247060</ele>
        <time>2021-11-07T12:47:53.479Z</time>
      </trkpt>
      <trkpt lat="47.518474" lon="7.888402">
        <ele>524.339409</ele>
        <time>2021-11-07T12:47:55.357Z</time>
      </trkpt>
      <trkpt lat="47.518434" lon="7.888581">
        <ele>522.690908</ele>
        <time>2021-11-07T12:47:56.396Z</time>
      </trkpt>
      <trkpt lat="47.518302" lon="7.888775">
        <ele>519.596087</ele>
        <time>2021-11-07T12:47:57.925Z</time>
      </trkpt>
      <trkpt lat="47.517859" lon="7.889220">
        <ele>510.437443</ele>
        <time>2021-11-07T12:48:02.326Z</time>
      </trkpt>
      <trkpt lat="47.517501" lon="7.889285">
        <ele>504.266667</ele>
        <time>2021-11-07T12:48:05.300Z</time>
      </trkpt>
      <trkpt lat="47.517407" lon="7.889372">
        <ele>502.370122</ele>
        <time>2021-11-07T12:48:06.218Z</time>
      </trkpt>
      <trkpt lat="47.517375" lon="7.889582">
        <ele>499.882657</ele>
        <time>2021-11-07T12:48:07.426Z</time>
      </trkpt>
      <trkpt lat="47.517377" lon="7.889776">
        <ele>497.640800</ele>
        <time>2021-11-07T12:48:08.502Z</time>
      </trkpt>
      <trkpt lat="47.517639" lon="7.889843">
        <ele>493.091971</ele>
        <time>2021-11-07T12:48:10.689Z</time>
      </trkpt>
      <trkpt lat="47.518341" lon="7.890051">
        <ele>481.864960</ele>
        <time>2021-11-07T12:48:16.583Z</time>
      </trkpt>
      <trkpt lat="47.518804" lon="7.890260">
        <ele>474.366610</ele>
        <time>2021-11-07T12:48:20.598Z</time>
      </trkpt>
      <trkpt lat="47.518904" lon="7.890312">
        <ele>472.724734</ele>
        <time>2021-11-07T12:48:21.463Z</time>
      </trkpt>
      <trkpt lat="47.519250" lon="7.890477">
        <ele>467.093640</ele>
        <time>2021-11-07T12:48:24.507Z</time>
      </trkpt>
      <trkpt lat="47.520227" lon="7.890842">
        <ele>455.298883</ele>
        <time>2021-11-07T12:48:33.077Z</time>
      </trkpt>
      <trkpt lat="47.520315" lon="7.890829">
        <ele>454.353752</ele>
        <time>2021-11-07T12:48:33.798Z</time>
      </trkpt>
      <trkpt lat="47.520432" lon="7.890787">
        <ele>453.067147</ele>
        <time>2021-11-07T12:48:34.874Z</time>
      </trkpt>
      <trkpt lat="47.520664" lon="7.890517">
        <ele>449.913627</ele>
        <time>2021-11-07T12:48:37.418Z</time>
      </trkpt>
      <trkpt lat="47.520857" lon="7.890440">
        <ele>447.777470</ele>
        <time>2021-11-07T12:48:39.311Z</time>
      </trkpt>
      <trkpt lat="47.520912" lon="7.890440">
        <ele>447.189681</ele>
        <time>2021-11-07T12:48:39.782Z</time>
      </trkpt>
      <trkpt lat="47.520961" lon="7.890476">
        <ele>446.605102</ele>
        <time>2021-11-07T12:48:40.227Z</time>
      </trkpt>
      <trkpt lat="47.521076" lon="7.890570">
        <ele>445.201279</ele>
        <time>2021-11-07T12:48:41.419Z</time>
      </trkpt>
      <trkpt lat="47.521171" lon="7.890749">
        <ele>443.858053</ele>
        <time>2021-11-07T12:48:42.822Z</time>
      </trkpt>
      <trkpt lat="47.521509" lon="7.892191">
        <ele>436.132279</ele>
        <time>2021-11-07T12:48:51.910Z</time>
      </trkpt>
      <trkpt lat="47.521622" lon="7.892480">
        <ele>434.442028</ele>
        <time>2021-11-07T12:48:53.888Z</time>
      </trkpt>
      <trkpt lat="47.521781" lon="7.892718">
        <ele>432.747550</ele>
        <time>2021-11-07T12:48:56.011Z</time>
      </trkpt>
      <trkpt lat="47.521953" lon="7.892944">
        <ele>431.036652</ele>
        <time>2021-11-07T12:48:58.107Z</time>
      </trkpt>
      <trkpt lat="47.522749" lon="7.894109">
        <ele>424.489193</ele>
        <time>2021-11-07T12:49:08.424Z</time>
      </trkpt>
      <trkpt lat="47.522867" lon="7.894272">
        <ele>423.545141</ele>
        <time>2021-11-07T12:49:09.987Z</time>
      </trkpt>
      <trkpt lat="47.522977" lon="7.894413">
        <ele>422.694011</ele>
        <time>2021-11-07T12:49:11.293Z</time>
      </trkpt>
      <trkpt lat="47.523420" lon="7.894894">
        <ele>419.148674</ele>
        <time>2021-11-07T12:49:16.435Z</time>
      </trkpt>
      <trkpt lat="47.523605" lon="7.895228">
        <ele>416.917254</ele>
        <time>2021-11-07T12:49:19.098Z</time>
      </trkpt>
      <trkpt lat="47.523641" lon="7.895350">
        <ele>416.229520</ele>
        <time>2021-11-07T12:49:19.914Z</time>
      </trkpt>
      <trkpt lat="47.523677" lon="7.895541">
        <ele>415.205194</ele>
        <time>2021-11-07T12:49:21.062Z</time>
      </trkpt>
      <trkpt lat="47.523696" lon="7.896099">
        <ele>412.319172</ele>
        <time>2021-11-07T12:49:24.337Z</time>
      </trkpt>
      <trkpt lat="47.523697" lon="7.896117">
        <ele>412.225878</ele>
        <time>2021-11-07T12:49:24.440Z</time>
      </trkpt>
      <trkpt lat="47.523511" lon="7.896920">
        <ele>407.840726</ele>
        <time>2021-11-07T12:49:29.503Z</time>
      </trkpt>
      <trkpt lat="47.523441" lon="7.897477">
        <ele>405.668800</ele>
        <time>2021-11-07T12:49:32.884Z</time>
      </trkpt>
      <trkpt lat="47.523412" lon="7.897808">
        <ele>404.634510</ele>
        <time>2021-11-07T12:49:34.882Z</time>
      </trkpt>
      <trkpt lat="47.523401" lon="7.898033">
        <ele>403.935462</ele>
        <time>2021-11-07T12:49:36.332Z</time>
      </trkpt>
      <trkpt lat="47.523292" lon="7.898330">
        <ele>402.887990</ele>
        <time>2021-11-07T12:49:38.453Z</time>
      </trkpt>
      <trkpt lat="47.523138" lon="7.898382">
        <ele>402.163175</ele>
        <time>2021-11-07T12:49:39.979Z</time>
      </trkpt>
      <trkpt lat="47.522446" lon="7.897739">
        <ele>398.484879</ele>
        <time>2021-11-07T12:49:48.655Z</time>
      </trkpt>
      <trkpt lat="47.521787" lon="7.897296">
        <ele>396.933822</ele>
        <time>2021-11-07T12:49:57.220Z</time>
      </trkpt>
      <trkpt lat="47.521726" lon="7.897312">
        <ele>396.801055</ele>
        <time>2021-11-07T12:49:58.599Z</time>
      </trkpt>
      <trkpt lat="47.521692" lon="7.897345">
        <ele>396.713930</ele>
        <time>2021-11-07T12:49:59.084Z</time>
      </trkpt>
      <trkpt lat="47.521598" lon="7.897576">
        <ele>396.323598</ele>
        <time>2021-11-07T12:50:01.076Z</time>
      </trkpt>
      <trkpt lat="47.521622" lon="7.897770">
        <ele>396.038150</ele>
        <time>2021-11-07T12:50:02.742Z</time>
      </trkpt>
      <trkpt lat="47.521720" lon="7.898014">
        <ele>395.627272</ele>
        <time>2021-11-07T12:50:04.742Z</time>
      </trkpt>
      <trkpt lat="47.521784" lon="7.898090">
        <ele>395.451453</ele>
        <time>2021-11-07T12:50:05.665Z</time>
      </trkpt>
      <trkpt lat="47.521956" lon="7.898198">
        <ele>395.051059</ele>
        <time>2021-11-07T12:50:07.604Z</time>
      </trkpt>
      <trkpt lat="47.522345" lon="7.898465">
        <ele>393.289358</ele>
        <time>2021-11-07T12:50:11.927Z</time>
      </trkpt>
      <trkpt lat="47.522443" lon="7.898590">
        <ele>392.594771</ele>
        <time>2021-11-07T12:50:13.102Z</time>
      </trkpt>
      <trkpt lat="47.523304" lon="7.900024">
        <ele>385.636210</ele>
        <time>2021-11-07T12:50:24.900Z</time>
      </trkpt>
      <trkpt lat="47.523345" lon="7.900195">
        <ele>385.002960</ele>
        <time>2021-11-07T12:50:26.021Z</time>
      </trkpt>
      <trkpt lat="47.523439" lon="7.900370">
        <ele>384.558990</ele>
        <time>2021-11-07T12:50:30.171Z</time>
      </trkpt>
      <trkpt lat="47.523582" lon="7.900546">
        <ele>384.012288</ele>
        <time>2021-11-07T12:50:35.501Z</time>
      </trkpt>
      <trkpt lat="47.523648" lon="7.900606">
        <ele>383.784588</ele>
        <time>2021-11-07T12:50:37.556Z</time>
      </trkpt>
      <trkpt lat="47.523739" lon="7.900557">
        <ele>383.499894</ele>
        <time>2021-11-07T12:50:38.542Z</time>
      </trkpt>
      <trkpt lat="47.523878" lon="7.900445">
        <ele>383.034630</ele>
        <time>2021-11-07T12:50:40.186Z</time>
      </trkpt>
      <trkpt lat="47.523957" lon="7.900371">
        <ele>382.759789</ele>
        <time>2021-11-07T12:50:41.061Z</time>
      </trkpt>
      <trkpt lat="47.523989" lon="7.900340">
        <ele>382.647360</ele>
        <time>2021-11-07T12:50:41.443Z</time>
      </trkpt>
      <trkpt lat="47.523945" lon="7.900256">
        <ele>382.436290</ele>
        <time>2021-11-07T12:50:42.242Z</time>
      </trkpt>
      <trkpt lat="47.523890" lon="7.900131">
        <ele>382.140075</ele>
        <time>2021-11-07T12:50:43.407Z</time>
      </trkpt>
      <trkpt lat="47.523861" lon="7.900049">
        <ele>381.956292</ele>
        <time>2021-11-07T12:50:44.043Z</time>
      </trkpt>
      <trkpt lat="47.523896" lon="7.900001">
        <ele>381.816035</ele>
        <time>2021-11-07T12:50:44.496Z</time>
      </trkpt>
      <trkpt lat="47.524309" lon="7.899115">
        <ele>379.740458</ele>
        <time>2021-11-07T12:50:52.787Z</time>
      </trkpt>
      <trkpt lat="47.524360" lon="7.898951">
        <ele>379.717784</ele>
        <time>2021-11-07T12:50:54.315Z</time>
      </trkpt>
      <trkpt lat="47.524617" lon="7.898216">
        <ele>379.613845</ele>
        <time>2021-11-07T12:51:03.524Z</time>
      </trkpt>
      <trkpt lat="47.524834" lon="7.897636">
        <ele>379.530579</ele>
        <time>2021-11-07T12:51:10.713Z</time>
      </trkpt>
      <trkpt lat="47.525518" lon="7.896336">
        <ele>378.540898</ele>
        <time>2021-11-07T12:51:26.798Z</time>
      </trkpt>
      <trkpt lat="47.525590" lon="7.896117">
        <ele>378.233629</ele>
        <time>2021-11-07T12:51:28.437Z</time>
      </trkpt>
      <trkpt lat="47.525622" lon="7.895944">
        <ele>378.007352</ele>
        <time>2021-11-07T12:51:30.564Z</time>
      </trkpt>
      <trkpt lat="47.525631" lon="7.895583">
        <ele>377.551646</ele>
        <time>2021-11-07T12:51:32.952Z</time>
      </trkpt>
      <trkpt lat="47.525631" lon="7.895442">
        <ele>377.373777</ele>
        <time>2021-11-07T12:51:34.689Z</time>
      </trkpt>
      <trkpt lat="47.525603" lon="7.895265">
        <ele>377.144449</ele>
        <time>2021-11-07T12:51:36.036Z</time>
      </trkpt>
      <trkpt lat="47.525725" lon="7.895110">
        <ele>376.844155</ele>
        <time>2021-11-07T12:51:37.558Z</time>
      </trkpt>
      <trkpt lat="47.526257" lon="7.894278">
        <ele>375.099511</ele>
        <time>2021-11-07T12:51:45.754Z</time>
      </trkpt>
      <trkpt lat="47.526335" lon="7.893960">
        <ele>374.476656</ele>
        <time>2021-11-07T12:51:48.086Z</time>
      </trkpt>
      <trkpt lat="47.526401" lon="7.893964">
        <ele>374.296566</ele>
        <time>2021-11-07T12:51:48.722Z</time>
      </trkpt>
      <trkpt lat="47.526451" lon="7.893983">
        <ele>374.155833</ele>
        <time>2021-11-07T12:51:49.455Z</time>
      </trkpt>
      <trkpt lat="47.526504" lon="7.894030">
        <ele>373.987411</ele>
        <time>2021-11-07T12:51:50.124Z</time>
      </trkpt>
      <trkpt lat="47.526709" lon="7.893617">
        <ele>373.043774</ele>
        <time>2021-11-07T12:51:53.550Z</time>
      </trkpt>
      <trkpt lat="47.527011" lon="7.893061">
        <ele>371.730150</ele>
        <time>2021-11-07T12:51:58.555Z</time>
      </trkpt>
      <trkpt lat="47.527498" lon="7.892650">
        <ele>370.697133</ele>
        <time>2021-11-07T12:52:04.629Z</time>
      </trkpt>
      <trkpt lat="47.528003" lon="7.892732">
        <ele>370.038336</ele>
        <time>2021-11-07T12:52:10.878Z</time>
      </trkpt>
      <trkpt lat="47.528331" lon="7.892682">
        <ele>369.610745</ele>
        <time>2021-11-07T12:52:15.146Z</time>
      </trkpt>
      <trkpt lat="47.529235" lon="7.892158">
        <ele>368.446690</ele>
        <time>2021-11-07T12:52:26.845Z</time>
      </trkpt>
      <trkpt lat="47.529695" lon="7.891638">
        <ele>367.850284</ele>
        <time>2021-11-07T12:52:33.896Z</time>
      </trkpt>
      <trkpt lat="47.529714" lon="7.891609">
        <ele>367.822164</ele>
        <time>2021-11-07T12:52:34.158Z</time>
      </trkpt>
      <trkpt lat="47.529972" lon="7.891210">
        <ele>367.437722</ele>
        <time>2021-11-07T12:52:38.584Z</time>
      </trkpt>
      <trkpt lat="47.530322" lon="7.890690">
        <ele>366.968294</ele>
        <time>2021-11-07T12:52:44.729Z</time>
      </trkpt>
      <trkpt lat="47.530606" lon="7.890373">
        <ele>367.057817</ele>
        <time>2021-11-07T12:52:49.437Z</time>
      </trkpt>
      <trkpt lat="47.530815" lon="7.890220">
        <ele>367.116505</ele>
        <time>2021-11-07T12:52:52.624Z</time>
      </trkpt>
      <trkpt lat="47.531076" lon="7.890029">
        <ele>367.189790</ele>
        <time>2021-11-07T12:52:57.187Z</time>
      </trkpt>
      <trkpt lat="47.531265" lon="7.889937">
        <ele>367.239872</ele>
        <time>2021-11-07T12:53:00.255Z</time>
      </trkpt>
      <trkpt lat="47.531560" lon="7.889776">
        <ele>367.319014</ele>
        <time>2021-11-07T12:53:05.907Z</time>
      </trkpt>
      <trkpt lat="47.531843" lon="7.889349">
        <ele>367.464910</ele>
        <time>2021-11-07T12:53:13.492Z</time>
      </trkpt>
      <trkpt lat="47.532011" lon="7.888896">
        <ele>368.051302</ele>
        <time>2021-11-07T12:53:20.688Z</time>
      </trkpt>
      <trkpt lat="47.532288" lon="7.887728">
        <ele>369.455854</ele>
        <time>2021-11-07T12:53:39.572Z</time>
      </trkpt>
      <trkpt lat="47.532505" lon="7.887120">
        <ele>370.236120</ele>
        <time>2021-11-07T12:53:49.859Z</time>
      </trkpt>
      <trkpt lat="47.532650" lon="7.885569">
        <ele>371.809312</ele>
        <time>2021-11-07T12:54:12.621Z</time>
      </trkpt>
      <trkpt lat="47.532658" lon="7.884989">
        <ele>372.382656</ele>
        <time>2021-11-07T12:54:20.808Z</time>
      </trkpt>
      <trkpt lat="47.532670" lon="7.884773">
        <ele>372.596854</ele>
        <time>2021-11-07T12:54:24.111Z</time>
      </trkpt>
      <trkpt lat="47.532699" lon="7.884224">
        <ele>373.058678</ele>
        <time>2021-11-07T12:54:31.226Z</time>
      </trkpt>
      <trkpt lat="47.532713" lon="7.884122">
        <ele>373.045172</ele>
        <time>2021-11-07T12:54:32.390Z</time>
      </trkpt>
      <trkpt lat="47.532859" lon="7.883508">
        <ele>372.960709</ele>
        <time>2021-11-07T12:54:40.001Z</time>
      </trkpt>
      <trkpt lat="47.533014" lon="7.882949">
        <ele>372.882301</ele>
        <time>2021-11-07T12:54:46.221Z</time>
      </trkpt>
      <trkpt lat="47.533374" lon="7.881639">
        <ele>372.393934</ele>
        <time>2021-11-07T12:54:57.933Z</time>
      </trkpt>
      <trkpt lat="47.533606" lon="7.880961">
        <ele>371.032033</ele>
        <time>2021-11-07T12:55:03.728Z</time>
      </trkpt>
      <trkpt lat="47.533892" lon="7.880353">
        <ele>369.704340</ele>
        <time>2021-11-07T12:55:09.045Z</time>
      </trkpt>
      <trkpt lat="47.534616" lon="7.879490">
        <ele>366.547304</ele>
        <time>2021-11-07T12:55:18.215Z</time>
      </trkpt>
      <trkpt lat="47.534908" lon="7.878975">
        <ele>364.172157</ele>
        <time>2021-11-07T12:55:22.417Z</time>
      </trkpt>
      <trkpt lat="47.534946" lon="7.878790">
        <ele>363.489222</ele>
        <time>2021-11-07T12:55:23.693Z</time>
      </trkpt>
      <trkpt lat="47.534825" lon="7.878414">
        <ele>362.018163</ele>
        <time>2021-11-07T12:55:26.219Z</time>
      </trkpt>
      <trkpt lat="47.534778" lon="7.878270">
        <ele>361.453285</ele>
        <time>2021-11-07T12:55:27.371Z</time>
      </trkpt>
      <trkpt lat="47.534855" lon="7.878090">
        <ele>360.700712</ele>
        <time>2021-11-07T12:55:28.621Z</time>
      </trkpt>
      <trkpt lat="47.535088" lon="7.877742">
        <ele>358.969791</ele>
        <time>2021-11-07T12:55:31.717Z</time>
      </trkpt>
      <trkpt lat="47.535322" lon="7.877590">
        <ele>357.759983</ele>
        <time>2021-11-07T12:55:34.214Z</time>
      </trkpt>
      <trkpt lat="47.535551" lon="7.877487">
        <ele>356.683004</ele>
        <time>2021-11-07T12:55:36.368Z</time>
      </trkpt>
      <trkpt lat="47.535635" lon="7.877484">
        <ele>356.304888</ele>
        <time>2021-11-07T12:55:37.305Z</time>
      </trkpt>
      <trkpt lat="47.535770" lon="7.877432">
        <ele>355.677174</ele>
        <time>2021-11-07T12:55:38.557Z</time>
      </trkpt>
      <trkpt lat="47.535851" lon="7.877319">
        <ele>355.176450</ele>
        <time>2021-11-07T12:55:39.587Z</time>
      </trkpt>
      <trkpt lat="47.536444" lon="7.876177">
        <ele>350.799391</ele>
        <time>2021-11-07T12:55:48.966Z</time>
      </trkpt>
      <trkpt lat="47.536632" lon="7.875912">
        <ele>350.149227</ele>
        <time>2021-11-07T12:55:51.615Z</time>
      </trkpt>
      <trkpt lat="47.536757" lon="7.875759">
        <ele>349.883026</ele>
        <time>2021-11-07T12:55:53.562Z</time>
      </trkpt>
      <trkpt lat="47.536921" lon="7.875537">
        <ele>349.518307</ele>
        <time>2021-11-07T12:55:56.129Z</time>
      </trkpt>
      <trkpt lat="47.537182" lon="7.875293">
        <ele>349.011639</ele>
        <time>2021-11-07T12:55:59.839Z</time>
      </trkpt>
      <trkpt lat="47.537261" lon="7.875237">
        <ele>348.867865</ele>
        <time>2021-11-07T12:56:00.800Z</time>
      </trkpt>
      <trkpt lat="47.537716" lon="7.874966">
        <ele>348.062798</ele>
        <time>2021-11-07T12:56:06.689Z</time>
      </trkpt>
      <trkpt lat="47.538278" lon="7.874319">
        <ele>347.493834</ele>
        <time>2021-11-07T12:56:15.164Z</time>
      </trkpt>
      <trkpt lat="47.539222" lon="7.873416">
        <ele>347.493834</ele>
        <time>2021-11-07T12:56:31.377Z</time>
      </trkpt>
      <trkpt lat="47.539678" lon="7.872430">
        <ele>347.493834</ele>
        <time>2021-11-07T12:56:44.611Z</time>
      </trkpt>
      <trkpt lat="47.539841" lon="7.872151">
        <ele>347.493834</ele>
        <time>2021-11-07T12:56:48.383Z</time>
      </trkpt>
      <trkpt lat="47.539841" lon="7.872151">
        <ele>347.493834</ele>
        <time>2021-11-07T12:56:48.572Z</time>
      </trkpt>
    </trkseg>
  </trk>
</gpx>